Level: Generation 1 Hard 3
Medal times: 8.427 author, 9.600 gold, 10.500 silver (finish the level to receive the bronze medal).
4 laps. Author lap times: 1.350, 2.350, 2.333, 2.394
Global leaderboard:country
|| online
|| | time date time player #rank lap times
RO N 8.444s 2023-05-16 07:37 Ericsson 3D #7001 1.450,2.366,2.300,2.328
US Y 8.444s 2023-05-24 18:52 NinjaspysOnu #7002 1.550,2.250,2.316,2.328
GB Y 8.444s 2023-06-02 14:53 DeusDough #7003 1.350,2.300,2.383,2.411
ES Y 8.444s 2023-06-10 07:58 elMARIO13_YT #7004 1.400,2.366,2.300,2.378
US Y 8.444s 2023-06-25 13:42 xpk #7005 1.383,2.367,2.316,2.378
GB N 8.444s 2023-07-08 19:00 Guest2038 #7006 1.350,2.300,2.383,2.411
GB Y 8.444s 2023-07-10 13:24 georgee #7007 1.500,2.366,2.267,2.311
CA Y 8.444s 2023-07-25 22:03 Vinyboy #7008 1.350,2.300,2.383,2.411
DE N 8.444s 2023-08-02 20:21 Gam3rsky #7009 1.483,2.383,2.267,2.311
CA Y 8.444s 2023-08-05 01:20 NS.606.🙌 #7010 1.450,2.366,2.267,2.361
SE N 8.444s 2023-08-05 12:16 Wayzefn #7011 1.350,2.300,2.383,2.411
GB Y 8.444s 2023-08-08 09:51 Wispnik #7012 1.450,2.366,2.267,2.361
BG Y 8.444s 2023-08-10 17:36 hnf11 #7013 1.450,2.366,2.367,2.261
US Y 8.444s 2023-08-25 22:44 Weluhpxrge #7014 1.450,2.366,2.367,2.261
US Y 8.444s 2023-09-06 17:16 Hibrodude #7015 1.383,2.367,2.283,2.411
DE Y 8.444s 2023-09-07 18:30 Elivondreli #7016 1.450,2.366,2.267,2.361
LT N 8.444s 2023-10-03 18:16 Cory #7017 1.350,2.366,2.350,2.378
FR Y 8.444s 2023-11-01 16:45 Malodramatic #7018 1.350,2.366,2.417,2.311
AU Y 8.444s 2023-11-08 14:59 L bozo #7019 1.450,2.366,2.267,2.361
SE N 8.444s 2023-11-10 07:02 Dr phil #7020 1.500,2.300,2.333,2.311
IL Y 8.444s 2023-11-23 10:25 TitaniumMan #7021 1.383,2.367,2.316,2.378
GB N 8.444s 2023-12-21 15:07 CollinsDuck! #7022 1.350,2.300,2.383,2.411
US Y 8.444s 2023-12-22 23:49 Nut_monke #7023 1.450,2.366,2.267,2.361
US Y 8.444s 2023-12-24 01:31 Crescent #7024 1.383,2.383,2.300,2.378
DE N 8.444s 2023-12-26 23:22 ExoTom #7025 1.433,2.367,2.266,2.378
NL N 8.444s 2024-01-04 14:28 joedegamerispro #7026 1.466,2.250,2.417,2.311
TR N 8.444s 2024-02-01 14:40 BuRaK #7027 1.416,2.350,2.334,2.344
AT N 8.444s 2024-02-04 09:43 Guest4801 #7028 1.433,2.367,2.266,2.378
AU N 8.444s 2024-02-11 02:59 Pickles #7029 1.350,2.416,2.334,2.344
JP N 8.444s 2024-02-13 07:26 Guest5327 #7030 1.433,2.317,2.283,2.411
CA Y 8.444s 2024-03-07 06:46 dibzy #7031 1.450,2.366,2.267,2.361
US Y 8.444s 2024-03-12 17:45 Narib1991 #7032 1.383,2.367,2.300,2.394
NL N 8.444s 2024-04-13 17:10 Guest9763 #7033 1.450,2.316,2.284,2.394
BE Y 8.444s 2024-05-13 14:24 Gonzalez #7034 1.450,2.366,2.367,2.261
US Y 8.444s 2024-05-23 00:11 Fart smella #7035 1.500,2.366,2.267,2.311
ES Y 8.444s 2024-06-07 08:11 Aritz4611 #7036 1.450,2.366,2.367,2.261
US Y 8.444s 2024-07-14 17:00 OneSmoothDude #7037 1.433,2.383,2.334,2.294
FR N 8.444s 2024-07-14 18:40 GokuLePanini1 #7038 1.350,2.300,2.383,2.411
DK Y 8.444s 2024-07-20 10:30 FightingColony2 #7039 1.450,2.366,2.267,2.361
FI Y 8.444s 2024-07-29 22:52 KorkkiRuuvi #7040 1.450,2.366,2.367,2.261
HU N 8.444s 2024-09-02 10:25 Boti #7041 1.450,2.366,2.317,2.311
LT N 8.444s 2024-11-05 13:33 ItchyDiction67 #7042 1.383,2.367,2.383,2.311
NL N 8.444s 2024-11-06 14:52 sepsap #7043 1.516,2.284,2.316,2.328
IT Y 8.444s 2025-08-18 17:00 hegiae #7044 1.516,2.250,2.350,2.328
NO N 8.444s 2025-09-23 09:03 Chineseser #7045 1.350,2.366,2.334,2.394
NO Y 8.444s 2025-12-23 12:30 PainterPilled KirkStein diddyblud271k #7046 1.400,2.350,2.350,2.344
SE Y 8.444s 2025-12-24 14:36 CB #7047 1.450,2.300,2.333,2.361
AT Y 8.444s 2026-01-09 23:15 Sprengi #7048 1.383,2.367,2.316,2.378
DE Y 8.444s 2026-01-20 14:38 Guest3854 #7049 1.450,2.366,2.367,2.261
US N 8.444s 2026-02-11 05:57 XxCHA0SxLORDxX #7050 1.400,2.333,2.400,2.311
IN Y 8.444s 2026-02-15 12:32 LORDKARJARAS #7051 1.383,2.350,2.333,2.378
MA N 8.444s 2026-03-23 02:58 m_m #7052 1.400,2.366,2.300,2.378
DE Y 8.444s 2026-03-25 09:32 Mihajlo #7053 1.400,2.350,2.333,2.361
GB Y 8.444s 2026-03-26 19:27 eamonator #7054 1.500,2.366,2.267,2.311
DE N 8.444s 2026-04-06 16:32 Guest7206 #7055 1.533,2.267,2.316,2.328
US Y 8.444s 2026-04-13 18:28 Guest5333 #7056 1.416,2.384,2.383,2.261
DE Y 8.444s 2026-04-17 19:45 WTB #7057 1.400,2.366,2.300,2.378
NL Y 8.444s 2026-04-19 12:43 Guest8853 #7058 1.400,2.366,2.300,2.378
CA Y 8.444s 2026-05-07 04:58 Jimbo #7059 1.500,2.366,2.267,2.311
RO N 8.457s 2022-08-03 20:22 Dey0411 #7060 1.433,2.317,2.366,2.341
US Y 8.457s 2023-06-23 17:35 Guest8735 #7061 1.416,2.300,2.400,2.341
US Y 8.457s 2023-12-21 03:51 XavvX #7062 1.450,2.333,2.333,2.341
TR Y 8.457s 2024-01-30 12:59 Den6 #7063 1.400,2.300,2.383,2.374
HR N 8.457s 2024-09-19 04:43 Cursed #7064 1.450,2.333,2.333,2.341
DE N 8.457s 2026-04-22 15:26 CryReyGER #7065 1.383,2.417,2.316,2.341
IT N 8.458s 2022-12-14 12:24 bailobot #7066 1.350,2.350,2.400,2.358
EE Y 8.458s 2022-12-15 19:52 FRUTH #7067 1.500,2.250,2.383,2.325
NZ Y 8.458s 2022-12-16 00:22 Lowky #7068 1.500,2.250,2.383,2.325
LT N 8.458s 2022-12-16 13:42 ZET_OG #7069 1.350,2.366,2.384,2.358
LV N 8.458s 2022-12-17 10:02 worst #7070 1.416,2.350,2.367,2.325
GB N 8.458s 2023-07-11 15:00 Jaylen #7071 1.450,2.350,2.333,2.325
PL N 8.458s 2023-08-05 16:23 Adamowskyyy #7072 1.416,2.350,2.367,2.325
GB N 8.458s 2024-01-20 09:36 exo_jxys13r #7073 1.400,2.366,2.367,2.325
DE N 8.458s 2024-03-05 13:25 Emules #7074 1.416,2.350,2.367,2.325
US Y 8.458s 2025-04-10 00:49 WhyPro #7075 1.500,2.250,2.383,2.325
KR Y 8.458s 2025-12-30 12:45 Cenix820 #7076 1.500,2.250,2.383,2.325
US Y 8.458s 2026-01-13 00:27 Eska #7077 1.500,2.250,2.383,2.325
US N 8.459s 2023-07-29 13:32 Mr dub #7078 1.450,2.300,2.400,2.309
US N 8.459s 2024-07-09 19:26 ItsDiasnotDiaz #7079 1.383,2.367,2.366,2.343
BE Y 8.460s 2022-07-04 20:53 ashu2 #7080 1.400,2.400,2.366,2.294
DE N 8.460s 2022-09-07 05:32 Moon #7081 1.516,2.367,2.267,2.310
DE Y 8.460s 2022-10-11 08:29 Speedy3 #7082 1.433,2.383,2.284,2.360
NL Y 8.460s 2022-10-11 10:33 Timion #7083 1.450,2.316,2.284,2.410
FR N 8.460s 2022-10-11 11:54 shogunyano #7084 1.383,2.383,2.367,2.327
US Y 8.460s 2022-12-07 00:19 exoalex #7085 1.350,2.350,2.333,2.427
DK Y 8.460s 2022-12-07 17:56 Itoo tt #7086 1.350,2.350,2.333,2.427
HR N 8.460s 2022-12-07 20:21 StingingTechnol #7087 1.383,2.367,2.366,2.344
UA Y 8.460s 2022-12-08 06:35 Andy13022011 #7088 1.483,2.350,2.333,2.294
IL Y 8.460s 2022-12-08 10:24 Guest1796 #7089 1.383,2.383,2.300,2.394
HU Y 8.460s 2022-12-08 11:24 no_bulli #7090 1.500,2.316,2.284,2.360
LB Y 8.460s 2022-12-08 19:58 PurposiveLiar3 #7091 1.516,2.317,2.333,2.294
IT Y 8.460s 2022-12-09 08:11 Schetty08 #7092 1.450,2.316,2.284,2.410
LV N 8.460s 2022-12-09 10:57 apasnijev #7093 1.350,2.350,2.333,2.427
IN Y 8.460s 2022-12-09 15:36 𝓐𝓜😉22 #7094 1.383,2.417,2.333,2.327
CR Y 8.460s 2022-12-09 23:33 FDA_SUBSONIC #7095 1.400,2.366,2.350,2.344
CZ Y 8.460s 2022-12-10 23:56 X3nor #7096 1.483,2.250,2.317,2.410
IL Y 8.460s 2022-12-11 16:46 Shaibs #7097 1.466,2.317,2.333,2.344
IL N 8.460s 2022-12-11 17:41 Kopybara #7098 1.500,2.316,2.284,2.360
IL Y 8.460s 2022-12-11 18:27 ReptilianGenius #7099 1.433,2.317,2.300,2.410
IL Y 8.460s 2022-12-11 19:41 ISHOWSPEED #7100 1.400,2.366,2.367,2.327
NZ Y 8.460s 2022-12-11 22:46 jumponmycrocth #7101 1.383,2.350,2.367,2.360
RS Y 8.460s 2022-12-13 12:31 Smeker #7102 1.466,2.317,2.333,2.344
MN N 8.460s 2022-12-14 15:19 Guest1150 #7103 1.350,2.350,2.333,2.427
GR Y 8.460s 2022-12-14 19:20 Tsoutsounas58 #7104 1.466,2.367,2.300,2.327
TR Y 8.460s 2022-12-15 14:53 Kucuksarisey #7105 1.450,2.316,2.284,2.410
RS Y 8.460s 2022-12-15 17:38 danilo brzina #7106 1.466,2.367,2.300,2.327
RS Y 8.460s 2022-12-15 19:41 GamerGuyDuki #7107 1.500,2.250,2.316,2.394
ES Y 8.460s 2022-12-16 11:10 PatlasApa891 #7108 1.450,2.300,2.383,2.327
RU Y 8.460s 2022-12-16 13:31 gorarat #7109 1.466,2.367,2.300,2.327
RO N 8.460s 2022-12-16 18:15 ping #7110 1.383,2.317,2.366,2.394
CH Y 8.460s 2022-12-18 11:44 AbominableSnake #7111 1.500,2.316,2.284,2.360
LT Y 8.460s 2022-12-19 10:59 dumbxdragon #7112 1.450,2.316,2.284,2.410
MK Y 8.460s 2022-12-20 21:09 Edna pleskavica #7113 1.516,2.367,2.267,2.310
CY Y 8.460s 2022-12-21 14:24 anxjelo #7114 1.450,2.316,2.284,2.410
ES N 8.460s 2022-12-24 18:34 luisvrso #7115 1.416,2.367,2.300,2.377
CZ Y 8.460s 2022-12-26 12:05 MGT #7116 1.400,2.316,2.400,2.344
IT Y 8.460s 2023-01-04 00:26 Vrrx #7117 1.383,2.367,2.383,2.327
US N 8.460s 2023-01-04 02:41 Getshiton #7118 1.350,2.350,2.333,2.427
US Y 8.460s 2023-02-01 18:36 Holbatron #7119 1.500,2.316,2.284,2.360
US Y 8.460s 2023-02-02 21:41 KakashixSensi #7120 1.383,2.367,2.300,2.410
FI N 8.460s 2023-02-06 14:24 matez #7121 1.450,2.333,2.333,2.344
CA Y 8.460s 2023-02-08 23:34 Bleuenosaurus #7122 1.450,2.383,2.300,2.327
DE Y 8.460s 2023-02-10 05:43 Polar #7123 1.350,2.350,2.333,2.427
DE N 8.460s 2023-02-11 12:34 Rosor #7124 1.466,2.317,2.317,2.360
FR N 8.460s 2023-03-21 15:56 Celianolecon #7125 1.466,2.367,2.300,2.327
FR N 8.460s 2023-04-04 15:59 ikuuu_ #7126 1.400,2.366,2.284,2.410
JO Y 8.460s 2023-04-06 14:39 SQadoome #7127 1.383,2.367,2.333,2.377
GB Y 8.460s 2023-04-10 15:17 SecondIon112 #7128 1.450,2.316,2.284,2.410
GB Y 8.460s 2023-05-10 10:14 I am bad #7129 1.466,2.367,2.300,2.327
TR Y 8.460s 2023-05-11 16:14 Darkwebkiller #7130 1.350,2.350,2.333,2.427
ES Y 8.460s 2023-05-15 17:21 nicoAG9 #7131 1.383,2.383,2.317,2.377
US N 8.460s 2023-05-19 17:39 Mr_Clean #7132 1.350,2.350,2.333,2.427
FR Y 8.460s 2023-06-01 17:15 QuestionableSum #7133 1.450,2.316,2.284,2.410
FR N 8.460s 2023-06-04 10:31 Mister nat #7134 1.350,2.350,2.333,2.427
IT Y 8.460s 2023-06-28 15:46 Crux #7135 1.383,2.367,2.350,2.360
FR N 8.460s 2023-07-02 18:28 pimentpiquant1 #7136 1.433,2.367,2.300,2.360
NL Y 8.460s 2023-07-03 10:41 JelteBMX #7137 1.466,2.317,2.333,2.344
JP N 8.460s 2023-07-05 04:27 YOUKIMI #7138 1.350,2.350,2.350,2.410
SE N 8.460s 2023-07-10 21:37 ITZLuke #7139 1.433,2.400,2.300,2.327
GB Y 8.460s 2023-07-15 18:10 M4X4 #7140 1.466,2.367,2.300,2.327
FR Y 8.460s 2023-07-16 14:18 Nozeidon #7141 1.450,2.333,2.367,2.310
FR N 8.460s 2023-07-20 20:00 ZippyHarvester6 #7142 1.416,2.317,2.350,2.377
AU Y 8.460s 2023-08-05 00:16 Zeju #7143 1.466,2.317,2.333,2.344
PL Y 8.460s 2023-08-06 12:00 edwardiko #7144 1.383,2.383,2.317,2.377
SG N 8.460s 2023-08-09 03:42 Critical #7145 1.350,2.350,2.333,2.427
IE Y 8.460s 2023-08-22 14:13 Murph #7146 1.500,2.250,2.316,2.394
PS Y 8.460s 2023-08-30 12:42 CloudyVenture27 #7147 1.466,2.317,2.333,2.344
FR N 8.460s 2023-09-04 12:04 Minoreex #7148 1.383,2.367,2.333,2.377
IL Y 8.460s 2023-09-10 05:53 RecordBreaker #7149 1.383,2.367,2.333,2.377
PL N 8.460s 2023-09-15 08:13 kibix #7150 1.466,2.317,2.317,2.360
FI Y 8.460s 2023-09-27 18:36 AgileCushion459 #7151 1.416,2.350,2.350,2.344
IL Y 8.460s 2023-09-29 13:19 LORDSHOAM #7152 1.400,2.366,2.300,2.394
NL N 8.460s 2023-10-11 09:50 Perdo #7153 1.450,2.316,2.284,2.410
NL Y 8.460s 2023-10-13 08:36 svennie #7154 1.450,2.316,2.334,2.360
US Y 8.460s 2023-10-24 15:22 Jbananaman7 #7155 1.466,2.317,2.317,2.360
CH N 8.460s 2023-11-07 10:50 gagobohne #7156 1.350,2.350,2.350,2.410
DK N 8.460s 2023-11-09 23:00 ice spiced #7157 1.383,2.383,2.367,2.327
SE Y 8.460s 2023-11-11 12:50 Cacapoopoo #7158 1.433,2.317,2.366,2.344
IL N 8.460s 2023-11-15 07:16 racer #7159 1.416,2.417,2.317,2.310
FR Y 8.460s 2023-11-19 21:49 Thowwwaaaas #7160 1.433,2.333,2.284,2.410
NL Y 8.460s 2023-12-02 17:02 dodo #7161 1.466,2.300,2.384,2.310
LV Y 8.460s 2023-12-05 06:36 RabidAttacker29 #7162 1.466,2.317,2.333,2.344
CA Y 8.460s 2023-12-05 20:14 gu #7163 1.466,2.317,2.333,2.344
NL N 8.460s 2023-12-26 16:47 Frituurscheet #7164 1.450,2.316,2.284,2.410
LT N 8.460s 2024-01-06 14:54 EXO__PRO #7165 1.383,2.367,2.366,2.344
CA Y 8.460s 2024-02-04 18:29 ItsCopix #7166 1.466,2.367,2.300,2.327
NO Y 8.460s 2024-02-06 11:58 Benjy_gamer #7167 1.450,2.316,2.284,2.410
FR Y 8.460s 2024-02-07 07:11 yayapizza #7168 1.450,2.316,2.284,2.410
US Y 8.460s 2024-02-07 20:41 cooldude958606 #7169 1.450,2.283,2.333,2.394
FR N 8.460s 2024-02-11 18:04 Guest8474 #7170 1.350,2.350,2.333,2.427
US Y 8.460s 2024-03-02 17:09 Shadowless45 #7171 1.483,2.350,2.333,2.294
NL Y 8.460s 2024-03-18 13:31 Rixen27 #7172 1.433,2.317,2.366,2.344
PH Y 8.460s 2024-03-26 12:49 Jank #7173 1.400,2.366,2.300,2.394
JP Y 8.460s 2024-04-01 00:14 Guest9187 #7174 1.433,2.333,2.334,2.360
JP Y 8.460s 2024-04-09 02:42 Guest9161 #7175 1.400,2.366,2.367,2.327
US Y 8.460s 2024-04-23 23:43 DangerousDingo7 #7176 1.383,2.367,2.366,2.344
US Y 8.460s 2024-04-30 22:42 Hi5 #7177 1.466,2.367,2.333,2.294
PL Y 8.460s 2024-05-13 14:34 Guest9376 #7178 1.450,2.383,2.300,2.327
PL N 8.460s 2024-05-25 10:46 akkasamigaming1 #7179 1.383,2.367,2.366,2.344
FR Y 8.460s 2024-06-03 10:44 Ledocex #7180 1.516,2.317,2.333,2.294
US N 8.460s 2024-07-05 22:58 Hillo #7181 1.433,2.400,2.300,2.327
FR N 8.460s 2024-07-06 20:54 Guest8643 #7182 1.500,2.316,2.284,2.360
BG Y 8.460s 2024-07-08 13:12 fr0st1ngx #7183 1.450,2.316,2.334,2.360
US N 8.460s 2024-07-17 22:15 HarmbeNextDoor #7184 1.516,2.317,2.333,2.294
GB N 8.460s 2024-09-11 01:39 Gamerbit #7185 1.450,2.366,2.317,2.327
CA N 8.460s 2024-10-17 10:41 Guest7430 #7186 1.450,2.333,2.383,2.294
CZ N 8.460s 2024-11-23 15:52 Guest2409 #7187 1.466,2.367,2.300,2.327
AU N 8.460s 2024-12-08 12:15 TangyNerd300 #7188 1.483,2.317,2.300,2.360
DE N 8.460s 2024-12-15 14:09 Vo.1 (EVA) #7189 1.350,2.350,2.333,2.427
US N 8.460s 2025-02-03 03:35 Doomdestiny24 #7190 1.400,2.366,2.300,2.394
FR N 8.460s 2025-08-19 11:01 ViviKoro #7191 1.466,2.284,2.316,2.394
NL Y 8.460s 2026-01-04 22:16 Bram024 #7192 1.450,2.316,2.284,2.410
US Y 8.460s 2026-01-13 07:06 𝓆. #7193 1.450,2.250,2.333,2.427
NL Y 8.460s 2026-01-13 12:03 Robinogame easily #7194 1.500,2.383,2.267,2.310
US Y 8.460s 2026-02-08 15:48 itxjack #7195 1.516,2.367,2.267,2.310
US Y 8.460s 2026-02-22 05:14 CEAHAWKS #7196 1.383,2.367,2.383,2.327
US Y 8.460s 2026-03-07 20:45 DrRooo #7197 1.383,2.400,2.300,2.377
GR Y 8.460s 2026-03-08 16:31 dimtodim08 #7198 1.516,2.317,2.333,2.294
UA Y 8.460s 2026-03-18 12:51 Andrew #7199 1.516,2.367,2.267,2.310
FR Y 8.460s 2026-03-20 22:32 11 september #7200 1.433,2.350,2.333,2.344
BY N 8.460s 2026-03-29 10:54 okminka #7201 1.416,2.367,2.317,2.360
PL Y 8.460s 2026-04-08 13:22 Loczus #7202 1.450,2.333,2.333,2.344
GB Y 8.460s 2026-04-08 14:36 Jxke #7203 1.516,2.367,2.267,2.310
IN Y 8.460s 2026-05-04 14:23 ManicLaughter1045 #7204 1.516,2.367,2.267,2.310
BR N 8.460s 2026-05-05 16:05 JoséEric #7205 1.450,2.316,2.284,2.410
TR Y 8.460s 2026-05-05 21:09 GoldShadow35 #7206 1.483,2.317,2.350,2.310
US Y 8.461s 2022-08-03 06:51 TimesCurse #7207 1.516,2.250,2.384,2.311
AZ Y 8.461s 2022-08-03 13:35 Rustam #7208 1.433,2.383,2.384,2.261
US Y 8.461s 2022-12-07 03:05 Big boiu #7209 1.450,2.366,2.367,2.278
ES N 8.461s 2022-12-07 10:12 Its_Gavi1150 #7210 1.466,2.367,2.367,2.261
GE Y 8.461s 2022-12-07 18:33 LUKSON #7211 1.466,2.250,2.384,2.361
GR N 8.461s 2022-12-10 07:23 snow YT #7212 1.383,2.333,2.350,2.395
FI N 8.461s 2022-12-10 12:06 Topi010 #7213 1.516,2.250,2.384,2.311
HR Y 8.461s 2022-12-10 21:11 musa #7214 1.416,2.300,2.434,2.311
HR Y 8.461s 2022-12-11 06:37 RundownBuffalo6 #7215 1.450,2.366,2.384,2.261
CZ Y 8.461s 2022-12-12 20:54 MROZIKborec #7216 1.466,2.367,2.267,2.361
IT Y 8.461s 2022-12-16 18:36 gxsimo6669 #7217 1.466,2.284,2.383,2.328
GE Y 8.461s 2022-12-18 13:17 173Lks #7218 1.450,2.316,2.334,2.361
GR N 8.461s 2022-12-18 17:44 NATEX_IS_DEAD #7219 1.466,2.367,2.267,2.361
IN Y 8.461s 2022-12-20 16:11 Recklessgameryt #7220 1.566,2.250,2.317,2.328
PK Y 8.461s 2022-12-21 14:35 AmmarHaider5 #7221 1.466,2.300,2.334,2.361
LT Y 8.461s 2022-12-25 18:51 zimba #7222 1.466,2.367,2.367,2.261
IT N 8.461s 2022-12-27 22:31 Zoro-San #7223 1.433,2.350,2.350,2.328
PL Y 8.461s 2023-02-08 06:05 TurboClone01230 #7224 1.516,2.250,2.384,2.311
US N 8.461s 2023-05-22 02:45 BLU3BL00D5 #7225 1.466,2.367,2.267,2.361
FI Y 8.461s 2023-06-19 17:14 fish #7226 1.400,2.400,2.366,2.295
IL Y 8.461s 2023-07-07 17:28 Witsel #7227 1.450,2.300,2.333,2.378
GB Y 8.461s 2023-07-08 12:06 SyftX #7228 1.500,2.250,2.383,2.328
HU Y 8.461s 2023-08-06 20:35 Ede #7229 1.466,2.367,2.267,2.361
PL Y 8.461s 2023-08-20 19:24 Tajfun2i #7230 1.466,2.367,2.367,2.261
US Y 8.461s 2023-10-05 01:10 Weth #7231 1.516,2.250,2.384,2.311
US N 8.461s 2023-10-29 21:42 Prykc #7232 1.366,2.300,2.384,2.411
IE Y 8.461s 2023-11-01 07:37 paudi3 #7233 1.416,2.417,2.367,2.261
US N 8.461s 2023-11-21 02:16 SplendidProfess #7234 1.466,2.300,2.300,2.395
US Y 8.461s 2023-12-02 18:27 Guest7597 #7235 1.466,2.367,2.267,2.361
DK N 8.461s 2023-12-18 19:00 RoundBert #7236 1.450,2.250,2.366,2.395
IT N 8.461s 2024-02-19 11:39 Nisk #7237 1.466,2.367,2.367,2.261
US Y 8.461s 2024-03-10 07:01 Guest42069 #7238 1.450,2.266,2.367,2.378
US N 8.461s 2024-05-01 21:42 PupNuggy #7239 1.350,2.366,2.384,2.361
GB Y 8.461s 2024-05-08 20:21 Guest3310 #7240 1.516,2.250,2.384,2.311
AU N 8.461s 2024-09-24 12:33 anub1s180 #7241 1.466,2.367,2.367,2.261
NO N 8.461s 2025-01-01 00:10 esg #7242 1.466,2.350,2.334,2.311
PL Y 8.461s 2026-01-06 15:20 heniojestsuper #7243 1.466,2.367,2.267,2.361
US Y 8.461s 2026-02-09 04:34 ery #7244 1.416,2.417,2.267,2.361
GB Y 8.461s 2026-02-12 01:47 Fulmineus #7245 1.466,2.367,2.267,2.361
US Y 8.461s 2026-03-07 18:46 Farts2 #7246 1.450,2.366,2.334,2.311
UA Y 8.461s 2026-03-09 17:49 Seaggix82 #7247 1.466,2.367,2.267,2.361
US Y 8.461s 2026-04-06 15:24 Leiaaa #7248 1.450,2.300,2.333,2.378
GB Y 8.461s 2026-04-18 01:05 app! #7249 1.466,2.367,2.267,2.361
US Y 8.461s 2026-04-29 14:31 Chaz #7250 1.466,2.367,2.267,2.361
NL Y 8.473s 2022-10-11 10:46 DuckMan #7251 1.466,2.334,2.333,2.340
GB Y 8.474s 2023-02-01 23:55 Gaiboi #7252 1.350,2.300,2.500,2.324
CZ N 8.474s 2023-03-02 21:51 DANY_ #7253 1.466,2.300,2.384,2.324
DE Y 8.474s 2023-08-05 14:54 Guest1892 #7254 1.466,2.300,2.384,2.324
RS Y 8.474s 2023-11-11 19:58 Milicapro #7255 1.366,2.384,2.383,2.341
CA N 8.474s 2024-09-27 01:56 Guest7334 #7256 1.400,2.333,2.417,2.324
US N 8.474s 2026-03-12 12:14 Exo xyzo #7257 1.366,2.334,2.416,2.358
LT Y 8.475s 2022-12-25 16:35 IntrepidAardvar #7258 1.450,2.350,2.333,2.342
US N 8.475s 2023-01-31 13:01 Doglover2140 #7259 1.500,2.266,2.384,2.325
BE Y 8.475s 2023-07-22 18:24 Azemmm #7260 1.450,2.316,2.384,2.325
US Y 8.475s 2023-10-07 20:49 XD_Ecl1pze #7261 1.466,2.350,2.334,2.325
TR N 8.475s 2023-11-03 12:08 Walxt #7262 1.516,2.250,2.384,2.325
NL N 8.475s 2024-09-28 22:21 Bramjovu #7263 1.450,2.366,2.334,2.325
AT Y 8.475s 2026-01-26 15:54 Niklas #7264 1.516,2.250,2.384,2.325
AT Y 8.476s 2022-12-07 19:09 im Bad #7265 1.483,2.317,2.383,2.293
AT N 8.476s 2022-12-21 19:37 fabimi #7266 1.500,2.333,2.300,2.343
IT Y 8.476s 2023-01-30 17:58 FootlooseFootba #7267 1.500,2.316,2.367,2.293
GB N 8.476s 2023-04-12 13:12 Jamesmacky21 #7268 1.483,2.317,2.333,2.343
FR Y 8.476s 2023-06-14 19:02 MysteriousHermi #7269 1.483,2.333,2.367,2.293
US Y 8.476s 2023-06-16 13:48 Scrub #7270 1.500,2.283,2.350,2.343
NL Y 8.476s 2023-07-01 18:58 Emma #7271 1.533,2.317,2.333,2.293
FR Y 8.476s 2023-09-08 12:49 Rexosouli #7272 1.533,2.317,2.333,2.293
FR N 8.476s 2024-01-11 12:08 Sifire77 #7273 1.450,2.333,2.367,2.326
US Y 8.476s 2024-01-21 21:24 Bread #7274 1.500,2.350,2.333,2.293
CA Y 8.476s 2024-03-22 13:41 Guest4666 #7275 1.450,2.316,2.334,2.376
AU Y 8.476s 2024-04-07 12:12 Yes #7276 1.533,2.317,2.333,2.293
IN Y 8.476s 2025-03-15 07:42 Falconix #7277 1.533,2.317,2.333,2.293
AU Y 8.476s 2025-12-31 00:43 Gimp #7278 1.533,2.317,2.333,2.293
KR Y 8.476s 2026-01-30 07:47 박시현 Stanley #7279 1.466,2.367,2.333,2.310
TW Y 8.476s 2026-04-09 13:35 麝瓛行蔀 #7280 1.416,2.317,2.450,2.293
US Y 8.477s 2022-09-07 08:58 Guest9932 #7281 1.466,2.317,2.283,2.411
MY Y 8.477s 2022-10-11 03:50 WhySoEasy00 #7282 1.383,2.367,2.366,2.361
AT N 8.477s 2022-10-11 08:21 Gfrasti #7283 1.433,2.367,2.300,2.377
CA Y 8.477s 2022-12-07 00:35 Kxrds #7284 1.433,2.367,2.300,2.377
US Y 8.477s 2022-12-07 00:36 Shadow #7285 1.466,2.334,2.333,2.344
RO Y 8.477s 2022-12-07 10:16 Ovidiubgy123 #7286 1.450,2.316,2.284,2.427
CL N 8.477s 2022-12-07 15:41 Herrera_Te_Mea #7287 1.516,2.317,2.283,2.361
IL N 8.477s 2022-12-08 04:51 Fire reaper #7288 1.450,2.316,2.284,2.427
IT N 8.477s 2022-12-08 13:52 RxRtheFlameYT #7289 1.466,2.284,2.333,2.394
NZ Y 8.477s 2022-12-09 05:36 condey #7290 1.383,2.367,2.333,2.394
ES N 8.477s 2022-12-10 22:12 mike #7291 1.483,2.317,2.333,2.344
RU N 8.477s 2022-12-11 11:15 logvinov_dog #7292 1.433,2.383,2.267,2.394
FI Y 8.477s 2022-12-11 13:02 W Nobody #7293 1.466,2.317,2.283,2.411
DK Y 8.477s 2022-12-11 15:01 Suckmyballs #7294 1.483,2.317,2.333,2.344
LT Y 8.477s 2022-12-12 14:24 wa #7295 1.350,2.383,2.333,2.411
ES N 8.477s 2022-12-12 15:25 MA''''weak #7296 1.383,2.300,2.383,2.411
LV Y 8.477s 2022-12-12 21:07 duuzee #7297 1.366,2.350,2.367,2.394
CZ Y 8.477s 2022-12-13 00:13 BuracekMVP #7298 1.383,2.367,2.366,2.361
GF Y 8.477s 2022-12-13 10:20 ezwin123 #7299 1.483,2.367,2.266,2.361
NO Y 8.477s 2022-12-13 17:28 Xd-pro #7300 1.400,2.433,2.283,2.361
CZ Y 8.477s 2022-12-15 10:27 dendaaaa7 #7301 1.450,2.333,2.333,2.361
NZ N 8.477s 2022-12-15 10:54 Gamer627 #7302 1.483,2.317,2.333,2.344
DK N 8.477s 2022-12-15 13:58 Quit #7303 1.533,2.250,2.383,2.311
IE Y 8.477s 2022-12-17 08:00 jmsae #7304 1.450,2.366,2.317,2.344
RO N 8.477s 2022-12-17 16:50 waldythebest #7305 1.350,2.400,2.333,2.394
TR Y 8.477s 2022-12-17 17:46 Lorensio2008 #7306 1.450,2.350,2.333,2.344
AL Y 8.477s 2022-12-17 21:10 Kl_pro2008 #7307 1.466,2.317,2.283,2.411
HR N 8.477s 2022-12-18 19:56 setnoii #7308 1.533,2.367,2.266,2.311
SK Y 8.477s 2022-12-18 21:02 MemorialMidnigh #7309 1.483,2.367,2.266,2.361
IE Y 8.477s 2022-12-19 20:13 AyyItsSlyTDM #7310 1.516,2.317,2.283,2.361
ZA Y 8.477s 2022-12-20 16:57 ExoEvox #7311 1.500,2.316,2.300,2.361
RS Y 8.477s 2022-12-20 17:47 23_VUAAX_09 #7312 1.483,2.317,2.333,2.344
IE Y 8.477s 2022-12-21 21:15 Santa #7313 1.383,2.350,2.350,2.394
ES Y 8.477s 2022-12-23 18:29 Dide32 #7314 1.450,2.333,2.350,2.344
RS Y 8.477s 2022-12-23 20:53 Milica #7315 1.416,2.317,2.383,2.361
CZ Y 8.477s 2022-12-24 22:14 Ggmanda #7316 1.416,2.317,2.383,2.361
HR N 8.477s 2022-12-29 11:36 SnobbishGraduat #7317 1.450,2.333,2.333,2.361
US Y 8.477s 2023-01-04 06:28 BigArena #7318 1.483,2.367,2.300,2.327
GB N 8.477s 2023-02-04 00:06 RecipientMillen #7319 1.383,2.367,2.350,2.377
NL N 8.477s 2023-02-07 09:06 vjiggo #7320 1.383,2.417,2.316,2.361
GB N 8.477s 2023-02-17 22:03 Lemonz #7321 1.350,2.333,2.383,2.411
FR N 8.477s 2023-04-23 20:11 sachatouille884 #7322 1.433,2.350,2.283,2.411
GB Y 8.477s 2023-05-10 19:17 personalise #7323 1.450,2.333,2.283,2.411
CA N 8.477s 2023-05-11 18:09 deleted user #7324 1.433,2.367,2.300,2.377
NO Y 8.477s 2023-06-01 23:37 aRvErealycooldu #7325 1.516,2.317,2.283,2.361
AU Y 8.477s 2023-06-03 02:19 The1is2 #7326 1.433,2.383,2.317,2.344
TR Y 8.477s 2023-06-03 09:56 gr3yfruT #7327 1.450,2.266,2.367,2.394
SG N 8.477s 2023-06-03 15:07 SuperbotX2 #7328 1.450,2.316,2.367,2.344
US N 8.477s 2023-06-08 02:05 grssy #7329 1.383,2.383,2.317,2.394
GB Y 8.477s 2023-06-14 06:41 jeoloftheworld #7330 1.416,2.350,2.334,2.377
GB Y 8.477s 2023-06-18 10:09 DE Days #7331 1.500,2.366,2.267,2.344
GB Y 8.477s 2023-07-14 12:25 RottenTorpedo26 #7332 1.483,2.317,2.333,2.344
US Y 8.477s 2023-07-14 15:27 Jzonnyboy #7333 1.383,2.367,2.350,2.377
BO Y 8.477s 2023-07-15 16:03 CarlosEMZ #7334 1.533,2.367,2.266,2.311
FR Y 8.477s 2023-07-17 00:44 Maxence #7335 1.483,2.367,2.300,2.327
CA Y 8.477s 2023-07-27 21:34 eleven #7336 1.483,2.367,2.266,2.361
US N 8.477s 2023-09-02 00:50 TT V01D #7337 1.450,2.350,2.333,2.344
IT N 8.477s 2023-09-02 14:03 Cippino24 #7338 1.483,2.317,2.333,2.344
TR Y 8.477s 2023-09-07 18:28 Wafiresss #7339 1.466,2.317,2.333,2.361
SE Y 8.477s 2023-10-09 15:24 ELGATO #7340 1.466,2.317,2.283,2.411
LU N 8.477s 2023-12-30 10:51 Hogwarts #7341 1.500,2.333,2.283,2.361
DE Y 8.477s 2024-01-09 09:25 TalkativeWallab #7342 1.350,2.366,2.334,2.427
CA Y 8.477s 2024-01-14 02:02 Fruv_ #7343 1.516,2.317,2.283,2.361
SE N 8.477s 2024-01-18 18:24 Apple #7344 1.466,2.317,2.283,2.411
IL Y 8.477s 2024-02-03 07:14 mikotheking #7345 1.483,2.317,2.333,2.344
SE Y 8.477s 2024-04-06 22:06 Guest7351 #7346 1.350,2.350,2.350,2.427
FR Y 8.477s 2024-05-02 13:23 F1reGraph #7347 1.466,2.317,2.283,2.411
PL N 8.477s 2024-05-08 08:30 ostry_chipz #7348 1.450,2.350,2.283,2.394
SE Y 8.477s 2024-05-08 22:16 TheCarIsLost #7349 1.450,2.383,2.333,2.311
AU Y 8.477s 2024-05-09 06:20 Eternal #7350 1.516,2.250,2.317,2.394
IE N 8.477s 2024-05-09 22:59 Guest7211 #7351 1.416,2.367,2.367,2.327
SE N 8.477s 2024-05-11 08:23 Gandalf the gay #7352 1.466,2.367,2.283,2.361
GB Y 8.477s 2024-05-12 18:30 freepeanutface #7353 1.450,2.333,2.283,2.411
GB N 8.477s 2024-05-28 17:02 TheOneAndOnl09 #7354 1.466,2.367,2.267,2.377
SE N 8.477s 2024-05-31 19:52 Lurre larv #7355 1.416,2.367,2.367,2.327
DE Y 8.477s 2024-07-09 11:19 ickicock #7356 1.450,2.316,2.350,2.361
US Y 8.477s 2024-07-28 23:22 Fadez #7357 1.516,2.250,2.317,2.394
RO Y 8.477s 2024-08-04 08:36 Eaaasportyy #7358 1.466,2.384,2.266,2.361
FR Y 8.477s 2024-08-10 19:46 MasterAlan77 #7359 1.516,2.367,2.283,2.311
CA Y 8.477s 2024-10-03 03:27 Miresa #7360 1.516,2.317,2.283,2.361
JP N 8.477s 2024-11-06 04:06 Guest6188 #7361 1.350,2.433,2.367,2.327
BE N 8.477s 2024-12-16 17:57 bananaman #7362 1.483,2.317,2.333,2.344
NL N 8.477s 2025-02-05 06:54 MrJonhn #7363 1.466,2.300,2.334,2.377
GR N 8.477s 2025-02-08 15:53 raderxnx #7364 1.533,2.300,2.333,2.311
RO Y 8.477s 2025-12-19 16:30 NeedlessSurfer3 #7365 1.483,2.367,2.300,2.327
US N 8.477s 2025-12-29 20:05 Burnt #7366 1.483,2.317,2.333,2.344
FR Y 8.477s 2026-01-12 11:51 fhannachi #7367 1.516,2.250,2.317,2.394
NL Y 8.477s 2026-01-15 15:20 Istyaboy #7368 1.450,2.316,2.300,2.411
US Y 8.477s 2026-01-15 16:53 Burkey #7369 1.450,2.383,2.317,2.327
TW Y 8.477s 2026-02-06 15:31 anyan #7370 1.466,2.384,2.266,2.361
US N 8.477s 2026-02-09 16:13 olik #7371 1.450,2.366,2.300,2.361
IT N 8.477s 2026-03-03 21:06 piwiestefanored #7372 1.400,2.316,2.284,2.477
FR Y 8.477s 2026-03-24 09:38 MaxMsl #7373 1.483,2.317,2.333,2.344
CA Y 8.477s 2026-03-24 21:37 Guest5816 #7374 1.433,2.367,2.300,2.377
CO N 8.477s 2026-03-26 04:02 julu2009 #7375 1.350,2.350,2.333,2.444
RU Y 8.477s 2026-03-26 08:31 боюсь шпицов #7376 1.466,2.317,2.283,2.411
RO Y 8.477s 2026-03-31 09:48 DawiZzX #7377 1.483,2.317,2.333,2.344
JP N 8.477s 2026-04-12 11:59 よっしー #7378 1.383,2.367,2.400,2.327
US N 8.477s 2026-05-08 00:14 Yunk #7379 1.466,2.317,2.283,2.411
US N 8.477s 2026-05-08 01:20 GraniteWhale892 #7380 1.466,2.317,2.350,2.344
AT Y 8.478s 2022-12-07 12:51 Exo HeCkEr #7381 1.450,2.400,2.366,2.262
FI Y 8.478s 2022-12-09 18:17 argyy #7382 1.483,2.367,2.366,2.262
JO Y 8.478s 2022-12-11 05:19 Dusty #7383 1.483,2.367,2.366,2.262
IT Y 8.478s 2022-12-16 20:40 Sigma #7384 1.383,2.317,2.583,2.195
AL N 8.478s 2024-03-06 18:23 DioBest1000 #7385 1.583,2.250,2.317,2.328
BG N 8.478s 2024-08-10 14:31 oofy110 #7386 1.400,2.366,2.384,2.328
GB Y 8.478s 2024-08-14 07:50 Megosp #7387 1.550,2.250,2.316,2.362
NO N 8.478s 2025-09-22 17:46 HansP #7388 1.366,2.350,2.400,2.362
GR N 8.478s 2025-12-20 15:21 X_JaSoN_X #7389 1.583,2.250,2.317,2.328
AT Y 8.490s 2022-12-15 09:07 teto69 #7390 1.466,2.350,2.300,2.374
EE Y 8.490s 2023-02-03 16:21 LAMMAS #7391 1.450,2.350,2.316,2.374
GB Y 8.490s 2023-02-04 20:31 b1tch_please #7392 1.450,2.350,2.316,2.374
CZ Y 8.491s 2022-12-08 16:26 Kachnicka Momo #7393 1.500,2.283,2.383,2.325
DK N 8.491s 2022-12-11 17:15 Frysereje #7394 1.516,2.250,2.384,2.341
NO N 8.491s 2022-12-21 15:09 Suppe9 #7395 1.350,2.350,2.416,2.375
SI Y 8.491s 2022-12-25 19:23 JadeMonkey10205 #7396 1.466,2.250,2.417,2.358
NL N 8.491s 2023-02-06 18:03 Guest9936 #7397 1.483,2.350,2.333,2.325
CA Y 8.491s 2023-10-08 05:57 Shadow_Dev12 #7398 1.350,2.400,2.400,2.341
BG Y 8.491s 2023-11-08 20:32 Hriskata21 #7399 1.500,2.266,2.400,2.325
US N 8.491s 2024-01-10 02:33 Rake #7400 1.483,2.300,2.383,2.325
IT N 8.491s 2024-07-15 12:09 M_Lindo_00 #7401 1.483,2.300,2.383,2.325
IN N 8.491s 2024-09-18 11:11 Guest9643 #7402 1.466,2.284,2.383,2.358
BE N 8.491s 2025-01-04 22:12 Guest1824 #7403 1.400,2.383,2.350,2.358
GB N 8.493s 2022-08-03 00:25 YuPD4v1d3lul #7404 1.433,2.400,2.333,2.327
BR Y 8.493s 2022-08-03 01:46 Koddi #7405 1.383,2.367,2.416,2.327
HU Y 8.493s 2022-08-03 09:15 PotatoMadman #7406 1.416,2.350,2.417,2.310
VN Y 8.493s 2022-12-07 12:56 bbminanhh #7407 1.483,2.383,2.300,2.327
SK Y 8.493s 2022-12-08 08:35 Guest1234 #7408 1.483,2.317,2.350,2.343
AL Y 8.493s 2022-12-09 13:10 ElMariachiiiii #7409 1.383,2.317,2.433,2.360
BG Y 8.493s 2022-12-10 06:10 UnknownSeal283 #7410 1.450,2.250,2.366,2.427
MD N 8.493s 2022-12-10 17:11 CeaiokS #7411 1.466,2.334,2.383,2.310
LV Y 8.493s 2022-12-11 07:53 devil #7412 1.450,2.416,2.300,2.327
FI Y 8.493s 2022-12-13 11:51 Luksuboi #7413 1.450,2.383,2.317,2.343
AQ Y 8.493s 2022-12-13 12:44 LOTUS #7414 1.450,2.316,2.367,2.360
SG Y 8.493s 2022-12-14 06:47 highflyer128 #7415 1.466,2.317,2.333,2.377
SI Y 8.493s 2022-12-15 22:27 NiceArcheoptery #7416 1.466,2.334,2.350,2.343
HR Y 8.493s 2022-12-16 12:44 PatrikAntunovic #7417 1.500,2.316,2.334,2.343
CZ N 8.493s 2022-12-16 16:40 Misapau #7418 1.350,2.350,2.366,2.427
NO N 8.493s 2022-12-17 10:50 Eilif_0 #7419 1.450,2.366,2.350,2.327
OM Y 8.493s 2022-12-20 16:58 Guest6478 #7420 1.533,2.333,2.334,2.293
IN N 8.493s 2022-12-22 07:03 deleted user #7421 1.533,2.317,2.283,2.360
CZ Y 8.493s 2022-12-22 16:18 Tobik #7422 1.550,2.316,2.334,2.293
ES Y 8.493s 2022-12-24 20:54 AbtRot #7423 1.533,2.317,2.283,2.360
NZ Y 8.493s 2022-12-25 03:37 Thebonecrusher2 #7424 1.500,2.316,2.334,2.343
CZ Y 8.493s 2022-12-25 13:34 gps sg cz #7425 1.550,2.316,2.334,2.293
US Y 8.493s 2023-01-04 02:33 neo the labby #7426 1.500,2.316,2.334,2.343
FI Y 8.493s 2023-02-01 13:59 Karnitus #7427 1.383,2.350,2.333,2.427
US Y 8.493s 2023-02-11 00:32 FrySauce #7428 1.450,2.400,2.316,2.327
CZ N 8.493s 2023-02-12 18:51 H0nz1k3 #7429 1.500,2.300,2.383,2.310
FR N 8.493s 2023-02-16 16:47 R1vetaik #7430 1.483,2.317,2.333,2.360
CA N 8.493s 2023-04-06 05:07 nneptunee #7431 1.500,2.366,2.300,2.327
NL N 8.493s 2023-05-27 08:35 Raze #7432 1.483,2.383,2.300,2.327
LV N 8.493s 2023-06-14 13:01 dimosikas #7433 1.450,2.350,2.333,2.360
US Y 8.493s 2023-06-15 14:36 STEEL #7434 1.383,2.417,2.333,2.360
FR Y 8.493s 2023-06-19 16:25 Juraso #7435 1.500,2.316,2.334,2.343
US Y 8.493s 2023-07-01 06:32 Thatguyjacks0n #7436 1.550,2.316,2.334,2.293
NL Y 8.493s 2023-07-14 08:10 fly #7437 1.383,2.383,2.367,2.360
US Y 8.493s 2023-07-24 01:27 SANDOS #7438 1.383,2.400,2.367,2.343
BE N 8.493s 2023-07-29 20:21 Blitz #7439 1.383,2.350,2.333,2.427
CZ N 8.493s 2023-08-29 13:44 UnmitigatedLunc #7440 1.383,2.350,2.350,2.410
DK N 8.493s 2023-08-31 13:57 Kvorning #7441 1.500,2.316,2.334,2.343
PT N 8.493s 2023-10-08 20:03 R3dYce #7442 1.500,2.333,2.367,2.293
BB Y 8.493s 2023-10-08 20:09 Kusuo #7443 1.433,2.367,2.366,2.327
CA N 8.493s 2023-10-14 16:18 Tanuki #7444 1.533,2.250,2.317,2.393
GB Y 8.493s 2023-11-22 10:01 Trinix #7445 1.450,2.350,2.366,2.327
FR N 8.493s 2023-12-30 10:59 Guest1000 #7446 1.450,2.316,2.334,2.393
BA Y 8.493s 2024-01-28 10:55 XertXV #7447 1.466,2.350,2.300,2.377
US Y 8.493s 2024-02-01 20:49 B Freed #7448 1.500,2.316,2.284,2.393
SE Y 8.493s 2024-02-21 11:20 Dante #7449 1.450,2.383,2.350,2.310
JP Y 8.493s 2024-02-24 08:27 daa11000 #7450 1.500,2.316,2.334,2.343
US Y 8.493s 2024-03-22 13:40 BusterBrown1025 #7451 1.383,2.383,2.367,2.360
GB N 8.493s 2024-04-03 12:24 Liv #7452 1.500,2.316,2.334,2.343
US Y 8.493s 2024-04-11 18:55 Guest5525 #7453 1.500,2.366,2.300,2.327
DE Y 8.493s 2024-04-23 14:57 Berliner hat #7454 1.500,2.366,2.300,2.327
US Y 8.493s 2024-05-12 02:10 Guest8888 #7455 1.350,2.350,2.333,2.460
AU N 8.493s 2024-05-21 08:31 Morning Wood #7456 1.383,2.433,2.334,2.343
DE N 8.493s 2024-06-03 17:54 DarkestProspect #7457 1.383,2.417,2.350,2.343
US N 8.493s 2024-06-16 16:39 hellomans24 #7458 1.450,2.350,2.333,2.360
IT Y 8.493s 2024-07-25 20:20 ALViY😘🔜maf #7459 1.466,2.367,2.283,2.377
CH Y 8.493s 2024-07-28 04:41 raphia128 #7460 1.516,2.267,2.317,2.393
US N 8.493s 2024-08-27 20:48 cattmare #7461 1.450,2.316,2.334,2.393
US N 8.493s 2025-01-09 10:38 Baconcat #7462 1.500,2.316,2.334,2.343
US N 8.493s 2025-01-16 06:05 Ari #7463 1.500,2.366,2.300,2.327
IL N 8.493s 2025-01-30 09:41 lucifer #7464 1.516,2.350,2.334,2.293
CA N 8.493s 2025-02-07 00:21 Shiba #7465 1.450,2.333,2.333,2.377
PL N 8.493s 2025-04-04 05:55 Deweloperr_ #7466 1.550,2.316,2.334,2.293
NL Y 8.493s 2026-02-10 16:07 Lmntrix6131 #7467 1.500,2.316,2.317,2.360
GB Y 8.493s 2026-02-17 21:04 a1marshmellow #7468 1.466,2.334,2.350,2.343
US N 8.493s 2026-03-07 04:53 ThePickle #7469 1.483,2.333,2.334,2.343
US Y 8.493s 2026-03-12 13:42 Guest2018 #7470 1.433,2.417,2.350,2.293
DE Y 8.493s 2026-03-15 14:42 plague #7471 1.500,2.316,2.334,2.343
FR Y 8.493s 2026-03-17 01:52 Vairon #7472 1.500,2.316,2.334,2.343
FR Y 8.493s 2026-03-25 10:08 specoolos #7473 1.533,2.250,2.317,2.393
NL Y 8.493s 2026-04-10 12:07 Thijn1908 #7474 1.450,2.383,2.350,2.310
AU Y 8.493s 2026-04-18 05:28 cl4de #7475 1.433,2.367,2.366,2.327
US N 8.493s 2026-04-24 00:03 aventador #7476 1.450,2.333,2.283,2.427
NL Y 8.493s 2026-04-27 09:17 Piethoan #7477 1.433,2.367,2.366,2.327
RU Y 8.494s 2022-08-03 08:11 Brutya #7478 1.483,2.383,2.367,2.261
DE N 8.494s 2022-09-07 10:37 Minaro009009 #7479 1.400,2.366,2.334,2.394
DE Y 8.494s 2022-09-07 18:25 StrongReaper210 #7480 1.383,2.367,2.333,2.411
US Y 8.494s 2022-10-11 00:48 Rash #7481 1.450,2.366,2.300,2.378
SA Y 8.494s 2022-10-11 09:32 Saakor #7482 1.350,2.416,2.334,2.394
AE Y 8.494s 2022-12-07 14:12 ValuelessSport2 #7483 1.550,2.250,2.383,2.311
SI Y 8.494s 2022-12-09 19:54 kevinos132 #7484 1.383,2.367,2.366,2.378
AT Y 8.494s 2022-12-10 12:04 cruel #7485 1.383,2.367,2.366,2.378
FI Y 8.494s 2022-12-12 12:09 Elmetzi #7486 1.416,2.384,2.283,2.411
RS N 8.494s 2022-12-13 22:20 DontBeDIMQ #7487 1.450,2.416,2.367,2.261
BY Y 8.494s 2022-12-15 20:46 ezhik #7488 1.383,2.367,2.366,2.378
LT Y 8.494s 2022-12-16 13:27 Dinobils #7489 1.383,2.350,2.417,2.344
RS N 8.494s 2022-12-17 21:38 tojeto #7490 1.450,2.366,2.300,2.378
SG Y 8.494s 2022-12-18 16:58 HydroCyan #7491 1.383,2.367,2.366,2.378
RO Y 8.494s 2022-12-19 07:54 Deivid 2 #7492 1.500,2.316,2.334,2.344
ES Y 8.494s 2022-12-20 09:48 HDfabi #7493 1.383,2.367,2.366,2.378
CZ Y 8.494s 2022-12-22 15:42 Zenoss_ #7494 1.383,2.367,2.366,2.378
LT Y 8.494s 2022-12-23 17:13 Bl dicky #7495 1.450,2.366,2.300,2.378
AT N 8.494s 2022-12-26 08:43 monke #7496 1.500,2.366,2.267,2.361
IL Y 8.494s 2023-01-04 05:26 GoodGameOkMan #7497 1.483,2.317,2.283,2.411
NL Y 8.494s 2023-02-01 14:36 Caladryus #7498 1.450,2.300,2.333,2.411
UA Y 8.494s 2023-02-03 16:09 ZaGRoM #7499 1.383,2.367,2.366,2.378
US Y 8.494s 2023-02-04 14:54 cant guard me #7500 1.383,2.400,2.317,2.394
SE Y 8.494s 2023-02-10 11:43 T4cosT4cos #7501 1.600,2.250,2.316,2.328
FR N 8.494s 2023-03-30 09:35 jumpingcat #7502 1.350,2.366,2.334,2.444
ES N 8.494s 2023-04-26 06:57 elreydelashisha #7503 1.466,2.367,2.267,2.394
FR N 8.494s 2023-04-27 20:34 Seykolololololl #7504 1.450,2.366,2.367,2.311
US Y 8.494s 2023-05-03 16:24 DJMortrud #7505 1.383,2.400,2.317,2.394
US N 8.494s 2023-05-08 20:14 Guest2834 #7506 1.450,2.366,2.300,2.378
US N 8.494s 2023-05-09 14:15 DecadentSnowman #7507 1.433,2.383,2.300,2.378
IL Y 8.494s 2023-05-12 16:57 LusciousQueso7 #7508 1.383,2.367,2.366,2.378
IL Y 8.494s 2023-05-22 09:03 B1LIK #7509 1.350,2.300,2.383,2.461
US N 8.494s 2023-06-02 17:16 Pingukid09 #7510 1.450,2.366,2.300,2.378
US N 8.494s 2023-06-03 16:08 Oil #7511 1.450,2.366,2.317,2.361
CH N 8.494s 2023-06-07 12:13 frk__ #7512 1.450,2.366,2.300,2.378
DE Y 8.494s 2023-06-11 08:19 PaddeCraft #7513 1.483,2.367,2.266,2.378
US Y 8.494s 2023-07-10 21:42 Lu #7514 1.350,2.333,2.400,2.411
CZ Y 8.494s 2023-08-20 09:26 s1rsY_00 #7515 1.466,2.350,2.334,2.344
DK Y 8.494s 2023-09-29 11:49 faceless #7516 1.383,2.367,2.366,2.378
PL N 8.494s 2023-10-30 12:37 kebcik #7517 1.383,2.367,2.366,2.378
SE N 8.494s 2023-12-08 08:50 Pelldoggy #7518 1.550,2.366,2.267,2.311
CH Y 8.494s 2023-12-17 00:55 Champion #7519 1.566,2.267,2.317,2.344
TR Y 8.494s 2023-12-21 05:56 redox #7520 1.450,2.366,2.300,2.378
CA Y 8.494s 2024-01-06 22:20 Blobracer #7521 1.383,2.367,2.366,2.378
FR Y 8.494s 2024-01-07 12:52 Oscar #7522 1.500,2.350,2.350,2.294
RO N 8.494s 2024-02-04 13:03 ZeuS__ #7523 1.483,2.367,2.266,2.378
NO Y 8.494s 2024-02-06 11:58 AronElskerGay #7524 1.450,2.366,2.284,2.394
CA Y 8.494s 2024-02-08 19:24 pshiki #7525 1.500,2.416,2.267,2.311
FR Y 8.494s 2024-02-09 20:03 nono348a #7526 1.450,2.300,2.433,2.311
PT Y 8.494s 2024-02-13 13:17 FTR_Vaxaze #7527 1.416,2.317,2.333,2.428
DK N 8.494s 2024-02-27 14:56 Amesome #7528 1.483,2.317,2.283,2.411
US Y 8.494s 2024-03-08 19:53 AmAllpha #7529 1.533,2.250,2.350,2.361
AU Y 8.494s 2024-03-28 23:16 Guest7213 #7530 1.416,2.367,2.333,2.378
AT Y 8.494s 2024-05-11 20:18 dodolul #7531 1.466,2.400,2.267,2.361
DE N 8.494s 2024-06-03 18:34 Zesty #7532 1.350,2.416,2.384,2.344
DE N 8.494s 2024-07-01 21:21 exom0ony #7533 1.383,2.367,2.400,2.344
US Y 8.494s 2024-07-11 23:16 vastr #7534 1.400,2.416,2.334,2.344
US Y 8.494s 2024-07-21 01:05 Juicy2Creamy #7535 1.433,2.383,2.300,2.378
IT N 8.494s 2024-07-24 19:09 Pantani #7536 1.383,2.367,2.366,2.378
US Y 8.494s 2024-08-08 02:55 Terry #7537 1.500,2.366,2.367,2.261
US Y 8.494s 2024-08-09 15:29 Doctorearbud #7538 1.383,2.367,2.366,2.378
US Y 8.494s 2024-08-15 16:47 Ninja #7539 1.483,2.317,2.283,2.411
RO Y 8.494s 2024-08-16 01:20 flame #7540 1.350,2.383,2.367,2.394
IM N 8.494s 2024-10-17 16:38 sindro #7541 1.500,2.366,2.267,2.361
PL N 8.494s 2024-10-19 23:12 KoksuYT #7542 1.433,2.383,2.367,2.311
IN N 8.494s 2024-11-03 18:02 arcanez #7543 1.500,2.366,2.267,2.361
GR N 8.494s 2025-06-18 19:16 WAVE #7544 1.383,2.383,2.334,2.394
PL N 8.494s 2026-01-03 16:33 akaBARTEK:< #7545 1.383,2.367,2.366,2.378
US Y 8.494s 2026-02-04 04:57 gio #7546 1.483,2.317,2.283,2.411
RU Y 8.494s 2026-02-04 16:34 geniy3958 #7547 1.483,2.367,2.266,2.378
GB N 8.494s 2026-02-07 17:15 speed #7548 1.483,2.400,2.300,2.311
EG Y 8.494s 2026-02-13 11:37 Wakeel77 #7549 1.350,2.366,2.434,2.344
CH Y 8.494s 2026-03-03 19:31 Ok4yz #7550 1.516,2.350,2.334,2.294
CO Y 8.494s 2026-03-12 19:44 Guest4407 #7551 1.383,2.367,2.366,2.378
US N 8.494s 2026-03-13 00:17 Gerardo #7552 1.466,2.334,2.383,2.311
US Y 8.494s 2026-03-13 18:20 Baseball #7553 1.466,2.317,2.283,2.428
KG Y 8.494s 2026-04-22 18:14 alvynnevale #7554 1.450,2.416,2.267,2.361
GB Y 8.494s 2026-04-25 08:36 luthen #7555 1.466,2.317,2.283,2.428
NO Y 8.507s 2023-09-01 16:31 Guest9875 #7556 1.383,2.400,2.383,2.341
TR Y 8.508s 2022-12-10 20:49 Eih #7557 1.400,2.433,2.333,2.342
BR N 8.508s 2022-12-21 15:31 FelipeFFC2009 #7558 1.350,2.383,2.400,2.375
AT Y 8.508s 2022-12-24 13:39 AlexSlimes #7559 1.550,2.250,2.383,2.325
DE Y 8.508s 2023-02-08 18:21 TT Rxze #7560 1.466,2.300,2.417,2.325
LV Y 8.508s 2024-01-06 11:56 bobik #7561 1.533,2.267,2.383,2.325
HK Y 8.510s 2022-09-07 12:37 Cas #7562 1.483,2.333,2.284,2.410
US Y 8.510s 2022-10-11 12:36 Guest2674 #7563 1.450,2.250,2.383,2.427
KP N 8.510s 2022-12-07 11:54 Guest4205 #7564 1.400,2.366,2.367,2.377
UA N 8.510s 2022-12-08 06:48 PostalImage25 #7565 1.516,2.367,2.300,2.327
RS Y 8.510s 2022-12-08 08:32 Jovan224 #7566 1.516,2.350,2.284,2.360
IL Y 8.510s 2022-12-08 15:06 OmriOn #7567 1.466,2.367,2.300,2.377
IL Y 8.510s 2022-12-09 13:52 bro adar 1st #7568 1.466,2.367,2.300,2.377
IL Y 8.510s 2022-12-09 14:39 barbaron500 #7569 1.400,2.366,2.367,2.377
NO Y 8.510s 2022-12-10 11:12 LoLBoL90 #7570 1.466,2.367,2.300,2.377
RO Y 8.510s 2022-12-10 15:18 OdaiCuThealpha0 #7571 1.516,2.367,2.300,2.327
AE N 8.510s 2022-12-13 06:31 Eleven #7572 1.516,2.284,2.316,2.394
FI Y 8.510s 2022-12-13 10:37 ALIBABA #7573 1.516,2.317,2.333,2.344
CZ Y 8.510s 2022-12-13 15:26 xkdjhdvebbdhd #7574 1.450,2.366,2.367,2.327
TH Y 8.510s 2022-12-15 09:45 Penguin #7575 1.450,2.366,2.367,2.327
DK Y 8.510s 2022-12-16 07:55 William #7576 1.550,2.250,2.316,2.394
XK Y 8.510s 2022-12-16 20:58 Adxmii03 #7577 1.383,2.433,2.367,2.327
AL Y 8.510s 2022-12-18 14:23 Ammar_Re19 #7578 1.350,2.350,2.383,2.427
IT Y 8.510s 2022-12-19 17:47 Guff #7579 1.533,2.400,2.267,2.310
ES Y 8.510s 2022-12-20 17:20 pablilto6 #7580 1.550,2.250,2.316,2.394
NZ N 8.510s 2022-12-21 14:48 GT bandos #7581 1.450,2.366,2.300,2.394
IT N 8.510s 2022-12-27 12:25 hareidrz #7582 1.383,2.383,2.367,2.377
HR Y 8.510s 2022-12-28 22:27 stevent #7583 1.416,2.467,2.333,2.294
GB N 8.510s 2023-02-01 15:45 Paki-man #7584 1.400,2.366,2.384,2.360
GB Y 8.510s 2023-02-10 07:24 Auto1ock #7585 1.450,2.400,2.333,2.327
NO N 8.510s 2023-03-26 14:05 Proullemann #7586 1.350,2.366,2.334,2.460
IT N 8.510s 2023-03-26 22:12 PearlWarden7968 #7587 1.466,2.334,2.366,2.344
US N 8.510s 2023-03-31 16:19 David14349 #7588 1.500,2.350,2.300,2.360
GB Y 8.510s 2023-04-07 22:22 Kav #7589 1.466,2.367,2.300,2.377
SE Y 8.510s 2023-05-19 13:56 ExuberantExteri #7590 1.500,2.316,2.284,2.410
US N 8.510s 2023-05-21 04:31 Guest2871 #7591 1.466,2.367,2.300,2.377
US N 8.510s 2023-05-29 18:15 Beni #7592 1.466,2.334,2.383,2.327
AT Y 8.510s 2023-06-19 16:24 elitryhard #7593 1.566,2.367,2.267,2.310
DE Y 8.510s 2023-06-19 16:42 anton_23 #7594 1.450,2.250,2.383,2.427
ES Y 8.510s 2023-07-01 10:18 Guest2233 #7595 1.483,2.367,2.333,2.327
AU N 8.510s 2023-07-14 13:08 LittolMan #7596 1.466,2.367,2.300,2.377
AU N 8.510s 2023-08-05 04:03 I have quit #7597 1.466,2.367,2.300,2.377
JP N 8.510s 2023-08-06 14:21 kodo #7598 1.550,2.316,2.350,2.294
FI N 8.510s 2023-09-02 10:49 PerunaSotilas #7599 1.516,2.317,2.333,2.344
DK Y 8.510s 2023-09-15 13:10 Deeeebb #7600 1.383,2.367,2.300,2.460
SE Y 8.510s 2023-09-21 20:11 Avve #7601 1.516,2.317,2.333,2.344
PL N 8.510s 2023-10-28 15:35 7000kdiamonds #7602 1.433,2.350,2.367,2.360
US N 8.510s 2023-10-29 13:36 Xchicken #7603 1.450,2.366,2.367,2.327
IT Y 8.510s 2023-11-07 17:01 Fedecasti_13 #7604 1.483,2.317,2.350,2.360
US Y 8.510s 2023-11-13 05:16 Guest8928 #7605 1.383,2.400,2.317,2.410
US Y 8.510s 2023-12-01 21:53 Chickennuggz #7606 1.550,2.250,2.316,2.394
NO Y 8.510s 2023-12-02 12:14 Flypengu #7607 1.383,2.367,2.366,2.394
US Y 8.510s 2023-12-11 22:15 Guest1914 #7608 1.450,2.366,2.367,2.327
BR N 8.510s 2024-01-17 16:58 Lionel_Pedro #7609 1.433,2.367,2.300,2.410
AU Y 8.510s 2024-01-19 16:46 rmjb #7610 1.500,2.316,2.284,2.410
NL N 8.510s 2024-01-24 09:10 Gerdo14s #7611 1.416,2.417,2.300,2.377
CA N 8.510s 2024-02-01 01:44 GuidedCloth1498 #7612 1.450,2.250,2.383,2.427
DK Y 8.510s 2024-02-10 13:51 deleted user #7613 1.433,2.400,2.300,2.377
NL Y 8.510s 2024-03-04 12:08 Snowgoat2 #7614 1.466,2.367,2.333,2.344
CA Y 8.510s 2024-04-04 16:59 chase #7615 1.450,2.366,2.367,2.327
AT Y 8.510s 2024-04-11 17:19 Martin09ka #7616 1.450,2.366,2.367,2.327
FR N 8.510s 2024-04-25 11:29 fatest way only #7617 1.450,2.366,2.300,2.394
GB Y 8.510s 2024-05-11 14:53 Guest6141 #7618 1.550,2.316,2.284,2.360
AR Y 8.510s 2024-05-17 18:43 Agustin Perez #7619 1.500,2.316,2.284,2.410
SK N 8.510s 2024-06-29 09:48 Tadeboy #7620 1.416,2.334,2.333,2.427
PT Y 8.510s 2024-07-17 23:05 Guest6260 #7621 1.450,2.316,2.334,2.410
HR Y 8.510s 2024-08-06 19:36 Ružno_pače #7622 1.483,2.350,2.333,2.344
US N 8.510s 2024-09-20 04:11 D4RK #7623 1.383,2.383,2.317,2.427
DE N 8.510s 2024-10-05 18:11 Guest9771 #7624 1.500,2.333,2.333,2.344
CH N 8.510s 2024-10-18 01:45 endrit.zh #7625 1.400,2.366,2.367,2.377
PL N 8.510s 2024-11-22 13:38 Onito #7626 1.400,2.366,2.367,2.377
US N 8.510s 2024-11-23 03:12 GC #7627 1.416,2.384,2.383,2.327
NL N 8.510s 2025-01-23 16:51 timo #7628 1.533,2.333,2.284,2.360
SA N 8.510s 2025-01-29 19:17 potato #7629 1.466,2.367,2.300,2.377
RO N 8.510s 2025-09-07 23:31 calinmatGDF #7630 1.566,2.317,2.333,2.294
DE N 8.510s 2025-12-08 18:36 Fqbi #7631 1.450,2.366,2.367,2.327
NL Y 8.510s 2026-01-14 08:51 Guest5919 #7632 1.483,2.317,2.350,2.360
FR Y 8.510s 2026-01-20 08:30 oops10times #7633 1.483,2.317,2.300,2.410
TN Y 8.510s 2026-01-25 13:14 SorcierWhite #7634 1.516,2.317,2.333,2.344
US Y 8.510s 2026-02-07 15:51 SIaveOwner #7635 1.450,2.366,2.367,2.327
CA N 8.510s 2026-02-08 08:12 SorryStench75 #7636 1.450,2.316,2.367,2.377
AE Y 8.510s 2026-03-03 16:52 Yasiuu667 #7637 1.483,2.350,2.367,2.310
SG Y 8.510s 2026-03-05 14:47 Quokka Quint #7638 1.450,2.433,2.300,2.327
TR Y 8.510s 2026-03-10 17:24 честь. #7639 1.550,2.316,2.284,2.360
FR N 8.510s 2026-03-23 17:48 Destroyeur38 #7640 1.450,2.350,2.350,2.360
IL N 8.510s 2026-04-19 17:47 Guest1353 #7641 1.566,2.367,2.267,2.310
FO Y 8.510s 2026-04-27 14:31 hEnI #7642 1.466,2.384,2.333,2.327
FR N 8.510s 2026-05-04 17:02 Guest9673 #7643 1.450,2.366,2.367,2.327
JP Y 8.510s 2026-05-07 05:25 omochiBS #7644 1.533,2.317,2.283,2.377
IT Y 8.511s 2022-12-26 13:27 RAIZY #7645 1.516,2.300,2.334,2.361
DE Y 8.511s 2023-02-07 18:01 MeanestReputati #7646 1.516,2.367,2.267,2.361
FI Y 8.511s 2023-05-22 16:23 deleted user #7647 1.516,2.367,2.267,2.361
GB Y 8.511s 2023-08-04 08:01 Nonkle #7648 1.616,2.250,2.317,2.328
US Y 8.511s 2023-09-28 21:17 Sensation #7649 1.516,2.367,2.267,2.361
FR Y 8.511s 2023-12-13 15:30 Tyhbz #7650 1.566,2.300,2.317,2.328
US Y 8.511s 2024-03-18 00:11 MINZYNODIFF #7651 1.616,2.250,2.317,2.328
NL Y 8.511s 2024-04-08 13:09 gamie0412 #7652 1.500,2.383,2.367,2.261
GB Y 8.511s 2024-05-08 20:22 Zboy324 #7653 1.366,2.334,2.400,2.411
GB N 8.511s 2024-05-15 12:45 TuckerMcNa #7654 1.450,2.383,2.333,2.345
RO N 8.511s 2024-06-13 07:03 deleted user #7655 1.483,2.350,2.333,2.345
US Y 8.511s 2024-06-17 21:05 Andy perezsanto #7656 1.616,2.250,2.317,2.328
VA N 8.511s 2025-11-04 07:55 DerBopo #7657 1.383,2.417,2.316,2.395
PL Y 8.511s 2026-01-17 11:00 SzlongMonster #7658 1.500,2.366,2.284,2.361
BE Y 8.511s 2026-02-15 13:54 Sunny #7659 1.500,2.383,2.267,2.361
FI Y 8.511s 2026-03-21 18:33 kerinee #7660 1.566,2.250,2.384,2.311
BY N 8.511s 2026-04-14 16:48 scary #7661 1.450,2.383,2.317,2.361
GH N 8.523s 2022-12-13 07:02 samsoumi2022 #7662 1.383,2.467,2.316,2.357
US N 8.523s 2023-07-28 22:16 jismonk #7663 1.433,2.333,2.384,2.373
DE Y 8.524s 2023-08-07 15:11 CrunchyCookie #7664 1.350,2.400,2.433,2.341
IL Y 8.524s 2026-03-26 12:25 AD4RRRR #7665 1.350,2.433,2.417,2.324
EE N 8.525s 2022-12-08 07:59 RattlingMajesty #7666 1.566,2.250,2.384,2.325
HR Y 8.525s 2022-12-14 11:13 scordes #7667 1.550,2.266,2.384,2.325
CH Y 8.525s 2022-12-15 14:50 GG milufan #7668 1.566,2.250,2.384,2.325
US Y 8.525s 2023-02-03 20:00 Rain #7669 1.566,2.250,2.384,2.325
CA Y 8.525s 2023-04-01 04:41 SkysTheLimitZX #7670 1.500,2.266,2.417,2.342
DK Y 8.525s 2023-10-20 06:44 shrinex #7671 1.350,2.433,2.367,2.375
BE Y 8.525s 2024-02-07 23:01 Moileu #7672 1.500,2.366,2.334,2.325
US Y 8.525s 2024-04-09 15:36 Eddie #7673 1.483,2.350,2.367,2.325
NO N 8.525s 2024-09-29 15:50 OlaPro2012 #7674 1.433,2.350,2.417,2.325
US Y 8.525s 2026-02-23 03:15 Spartacus13 #7675 1.566,2.250,2.384,2.325
FI Y 8.526s 2022-12-09 20:08 Onsku #7676 1.433,2.417,2.366,2.310
HR N 8.526s 2022-12-27 07:14 giga #7677 1.583,2.317,2.333,2.293
NL Y 8.526s 2023-02-03 16:50 mahsa #7678 1.550,2.316,2.334,2.326
RO N 8.526s 2023-03-10 07:24 Geo #7679 1.466,2.367,2.333,2.360
DK N 8.526s 2023-06-11 17:52 joni5967 #7680 1.550,2.350,2.333,2.293
FI Y 8.526s 2023-08-18 10:46 Guest6481 #7681 1.500,2.366,2.334,2.326
US N 8.526s 2023-08-25 18:07 cages #7682 1.350,2.466,2.367,2.343
US N 8.526s 2023-11-25 04:11 Wafflekid #7683 1.500,2.333,2.383,2.310
US N 8.526s 2024-05-24 17:11 Guest7596 #7684 1.450,2.316,2.384,2.376
SE N 8.526s 2025-12-21 09:09 ANTONSALETROS #7685 1.450,2.383,2.400,2.293
AU N 8.526s 2025-12-22 06:14 Bignig #7686 1.583,2.317,2.333,2.293
NL Y 8.526s 2026-02-09 10:59 Joey #7687 1.516,2.317,2.350,2.343
FR Y 8.527s 2022-09-07 10:18 Oczonomy #7688 1.416,2.367,2.367,2.377
DE Y 8.527s 2022-09-07 20:09 neophilus736 #7689 1.466,2.367,2.317,2.377
US Y 8.527s 2022-12-07 00:21 milo #7690 1.500,2.316,2.350,2.361
US N 8.527s 2022-12-07 00:35 Luciuslikesmen #7691 1.483,2.367,2.333,2.344
UY N 8.527s 2022-12-08 02:23 Lazy #7692 1.350,2.416,2.350,2.411
RO Y 8.527s 2022-12-08 09:36 Kiss_FM #7693 1.450,2.383,2.333,2.361
EG Y 8.527s 2022-12-08 19:58 Romanyosama #7694 1.516,2.317,2.333,2.361
ES Y 8.527s 2022-12-08 20:29 Porcupain #7695 1.516,2.384,2.300,2.327
BG Y 8.527s 2022-12-10 11:03 RabidTroglodyte #7696 1.416,2.367,2.367,2.377
MC Y 8.527s 2022-12-10 13:48 Forzaferrari21 #7697 1.466,2.367,2.300,2.394
CZ Y 8.527s 2022-12-11 12:15 czech #7698 1.450,2.366,2.300,2.411
BR Y 8.527s 2022-12-12 02:03 FELIPE #7699 1.450,2.316,2.400,2.361
PT Y 8.527s 2022-12-12 12:15 Sabigorna #7700 1.483,2.367,2.300,2.377
BO Y 8.527s 2022-12-12 15:08 MPlaysGamex #7701 1.383,2.367,2.400,2.377
DZ N 8.527s 2022-12-14 11:00 notkossai #7702 1.533,2.317,2.333,2.344
DK Y 8.527s 2022-12-14 15:22 Guest2832 #7703 1.383,2.433,2.334,2.377
FI Y 8.527s 2022-12-15 08:14 troingle #7704 1.383,2.350,2.333,2.461
CZ Y 8.527s 2022-12-15 17:38 Pussy_hunter69 #7705 1.533,2.367,2.300,2.327
PH N 8.527s 2022-12-16 04:09 twelve's alt #7706 1.466,2.367,2.367,2.327
FI Y 8.527s 2022-12-16 14:25 Neekeri2266 #7707 1.483,2.317,2.283,2.444
EU N 8.527s 2022-12-17 11:58 Guest8125 #7708 1.450,2.366,2.334,2.377
TR N 8.527s 2022-12-17 20:19 ibo31 #7709 1.450,2.283,2.350,2.444
IT Y 8.527s 2022-12-17 22:19 TRMN #7710 1.383,2.433,2.334,2.377
LT Y 8.527s 2022-12-18 11:06 Aleksiukas #7711 1.483,2.367,2.300,2.377
DK N 8.527s 2022-12-18 17:32 Hr Taske #7712 1.450,2.250,2.383,2.444
AT N 8.527s 2022-12-24 15:18 Fox #7713 1.450,2.383,2.367,2.327
CZ Y 8.527s 2022-12-25 08:27 MARTIScz1 #7714 1.416,2.350,2.334,2.427
ES Y 8.527s 2022-12-26 17:22 spacegiraffe #7715 1.466,2.350,2.334,2.377
IT Y 8.527s 2022-12-26 23:11 Guest4548 #7716 1.416,2.367,2.367,2.377
SE Y 8.527s 2023-01-04 00:24 PotatoMan #7717 1.466,2.367,2.367,2.327
US N 8.527s 2023-02-04 00:51 Hi #7718 1.516,2.317,2.283,2.411
US N 8.527s 2023-02-07 21:29 Doidoi #7719 1.350,2.300,2.383,2.494
FI Y 8.527s 2023-02-10 07:54 Bonepile #7720 1.483,2.367,2.333,2.344
SK N 8.527s 2023-02-12 15:22 Kapitan55557 #7721 1.500,2.400,2.300,2.327
GB N 8.527s 2023-04-26 09:58 Guest4718 #7722 1.383,2.417,2.366,2.361
LU Y 8.527s 2023-05-28 10:55 Luxcrafty #7723 1.583,2.250,2.383,2.311
US Y 8.527s 2023-07-01 18:57 Yes jojo #7724 1.450,2.383,2.300,2.394
AU N 8.527s 2023-08-15 11:40 FireeBranded #7725 1.533,2.367,2.300,2.327
US N 8.527s 2023-08-20 20:39 Ozdog #7726 1.450,2.383,2.317,2.377
FI Y 8.527s 2023-08-23 07:04 Kapu #7727 1.416,2.384,2.350,2.377
US N 8.527s 2023-08-23 21:29 RiftPW #7728 1.450,2.250,2.400,2.427
SE Y 8.527s 2023-09-01 16:31 RandomSpeedrun #7729 1.466,2.367,2.300,2.394
US N 8.527s 2023-09-03 15:27 CalebWMans #7730 1.383,2.383,2.384,2.377
NO N 8.527s 2023-09-06 15:49 Ray909 #7731 1.433,2.317,2.366,2.411
EG Y 8.527s 2023-09-21 09:49 George #7732 1.450,2.366,2.384,2.327
US Y 8.527s 2023-09-22 01:02 Exo_Leo #7733 1.416,2.384,2.366,2.361
SE Y 8.527s 2023-09-23 22:11 Måns2Swag #7734 1.400,2.333,2.383,2.411
ES Y 8.527s 2023-10-05 22:37 mtakion #7735 1.383,2.333,2.450,2.361
US N 8.527s 2023-11-17 00:52 Balla from 11 #7736 1.416,2.367,2.367,2.377
CA Y 8.527s 2023-12-05 16:11 WillingLegend44 #7737 1.500,2.333,2.333,2.361
US Y 8.527s 2023-12-17 20:19 GMDJack #7738 1.516,2.367,2.283,2.361
FR N 8.527s 2023-12-28 02:33 QTao #7739 1.466,2.250,2.384,2.427
RU Y 8.527s 2024-01-07 20:21 Wers #7740 1.533,2.317,2.333,2.344
DE Y 8.527s 2024-01-08 06:02 GamingChair #7741 1.450,2.400,2.300,2.377
FR N 8.527s 2024-01-26 15:28 Guest9588 #7742 1.533,2.367,2.300,2.327
ES Y 8.527s 2024-02-08 08:54 Cociestr2 #7743 1.450,2.316,2.350,2.411
GB Y 8.527s 2024-03-04 19:41 ParalleX #7744 1.483,2.367,2.300,2.377
LV Y 8.527s 2024-03-10 11:37 Jurgiscaba #7745 1.466,2.250,2.384,2.427
CA Y 8.527s 2024-03-17 05:16 Zzzzyzz #7746 1.533,2.367,2.300,2.327
CH N 8.527s 2024-04-07 19:17 MartianCaptain5 #7747 1.450,2.366,2.384,2.327
ZA N 8.527s 2024-04-09 15:41 skyeZ863 #7748 1.416,2.300,2.450,2.361
GE Y 8.527s 2024-04-10 05:54 Exo BERO #7749 1.433,2.367,2.350,2.377
RO Y 8.527s 2024-05-05 10:26 Aled #7750 1.483,2.350,2.317,2.377
RU Y 8.527s 2024-05-08 12:31 ironic #7751 1.466,2.367,2.367,2.327
GB Y 8.527s 2024-05-13 01:01 FranticLoan20 #7752 1.450,2.366,2.367,2.344
GR Y 8.527s 2024-05-23 08:54 DS #7753 1.433,2.300,2.383,2.411
HR N 8.527s 2024-06-05 20:56 omgtonpro666 #7754 1.500,2.316,2.300,2.411
PL Y 8.527s 2024-06-14 15:41 NetoWincjusz #7755 1.433,2.400,2.317,2.377
LV Y 8.527s 2024-06-21 08:51 UnrecordedTreat #7756 1.466,2.367,2.350,2.344
RO Y 8.527s 2024-07-06 18:17 Andreinotfound #7757 1.500,2.316,2.284,2.427
US Y 8.527s 2024-07-16 22:27 MrHaHa #7758 1.400,2.383,2.350,2.394
SI Y 8.527s 2024-07-27 21:34 lolipop hihi #7759 1.466,2.400,2.300,2.361
HR Y 8.527s 2024-08-03 18:57 limun #7760 1.483,2.317,2.316,2.411
FR N 8.527s 2024-08-03 19:26 Guest5552 #7761 1.533,2.317,2.333,2.344
TR N 8.527s 2024-10-16 09:20 Guest5469 #7762 1.516,2.317,2.283,2.411
RO N 8.527s 2024-12-04 10:41 TheBandit #7763 1.450,2.366,2.334,2.377
SG N 8.527s 2025-02-24 12:59 Itsyaboi #7764 1.450,2.250,2.383,2.444
DE N 8.527s 2025-04-30 07:19 MLG_Pizza #7765 1.583,2.250,2.383,2.311
US N 8.527s 2025-05-04 01:34 yenba2006 #7766 1.466,2.367,2.317,2.377
FI N 8.527s 2025-07-26 11:09 Ssavo7 #7767 1.433,2.350,2.350,2.394
AU Y 8.527s 2025-12-31 03:11 Barrybear #7768 1.516,2.267,2.333,2.411
SK Y 8.527s 2025-12-31 15:40 Pa3k #7769 1.450,2.333,2.367,2.377
NL Y 8.527s 2026-01-10 14:18 max #7770 1.500,2.316,2.334,2.377
NL Y 8.527s 2026-01-11 08:43 Alex #7771 1.533,2.367,2.300,2.327
FR Y 8.527s 2026-01-19 09:00 Alexss #7772 1.383,2.333,2.384,2.427
PL Y 8.527s 2026-02-08 10:06 Guest8729 #7773 1.466,2.367,2.300,2.394
US N 8.527s 2026-02-10 21:14 Kade #7774 1.533,2.317,2.333,2.344
US Y 8.527s 2026-02-15 19:29 Guest7595 #7775 1.483,2.367,2.366,2.311
CY Y 8.527s 2026-02-19 21:46 miko089 #7776 1.500,2.350,2.333,2.344
DE Y 8.527s 2026-02-22 15:56 CFI0 #7777 1.500,2.383,2.300,2.344
DE Y 8.527s 2026-03-03 01:05 Johannes #7778 1.450,2.366,2.384,2.327
JO Y 8.527s 2026-03-07 03:27 syipv #7779 1.383,2.367,2.383,2.394
CA N 8.527s 2026-03-15 01:35 Guest9360 #7780 1.500,2.366,2.284,2.377
US N 8.527s 2026-04-01 14:29 Archy #7781 1.433,2.367,2.333,2.394
GB Y 8.527s 2026-05-07 22:05 pussyslayerm8 #7782 1.383,2.333,2.384,2.427
SK Y 8.528s 2022-12-16 16:45 Ekekpp100 #7783 1.533,2.367,2.366,2.262
CZ N 8.528s 2022-12-16 19:42 Secen3844 #7784 1.533,2.367,2.366,2.262
HR Y 8.528s 2023-02-08 00:12 LovroD77359 #7785 1.466,2.367,2.417,2.278
BE N 8.528s 2024-02-29 17:14 BwitjeMof #7786 1.450,2.316,2.334,2.428
RO N 8.540s 2023-01-04 00:38 FormlessForecas #7787 1.383,2.417,2.350,2.390
IL N 8.540s 2024-04-29 16:17 sagi the pro #7788 1.450,2.333,2.400,2.357
AU Y 8.541s 2022-10-11 09:32 HKV #7789 1.583,2.250,2.383,2.325
RO Y 8.541s 2023-05-20 08:58 vyxl #7790 1.583,2.250,2.383,2.325
NO Y 8.541s 2023-09-13 07:54 Labbetuss #7791 1.583,2.250,2.383,2.325
AU Y 8.541s 2024-02-01 09:48 Hmcgreg #7792 1.566,2.250,2.400,2.325
IT N 8.541s 2024-05-30 08:42 LeoCalcio2007 #7793 1.350,2.333,2.433,2.425
IT Y 8.541s 2026-03-11 13:24 EMBenny_75 #7794 1.433,2.400,2.383,2.325
TR Y 8.543s 2022-09-07 09:27 Memteben #7795 1.466,2.250,2.384,2.443
NL Y 8.543s 2022-09-07 15:38 sjdf #7796 1.450,2.266,2.400,2.427
AE Y 8.543s 2022-12-07 18:11 6MU3 #7797 1.483,2.367,2.366,2.327
DK N 8.543s 2022-12-08 18:08 The GOAT #7798 1.450,2.250,2.416,2.427
RO Y 8.543s 2022-12-09 17:26 ReSpXcT #7799 1.466,2.267,2.383,2.427
LV Y 8.543s 2022-12-10 14:31 LightAdmiral557 #7800 1.533,2.333,2.334,2.343
FI Y 8.543s 2022-12-10 14:51 Neekeri #7801 1.550,2.366,2.300,2.327
CU Y 8.543s 2022-12-10 19:48 Neal rigg #7802 1.450,2.416,2.317,2.360
CZ Y 8.543s 2022-12-13 15:26 BajA #7803 1.583,2.333,2.334,2.293
LB Y 8.543s 2022-12-14 22:53 teddynohra #7804 1.516,2.300,2.334,2.393
SK N 8.543s 2022-12-17 10:48 IrascibleFacult #7805 1.416,2.400,2.350,2.377
DK Y 8.543s 2022-12-20 19:38 Im_N00b69 #7806 1.583,2.250,2.317,2.393
ES Y 8.543s 2023-01-04 03:09 Orange #7807 1.516,2.367,2.283,2.377
GB Y 8.543s 2023-02-02 12:38 Kj #7808 1.483,2.367,2.350,2.343
ID N 8.543s 2023-02-03 00:26 GSung #7809 1.450,2.350,2.400,2.343
US N 8.543s 2023-02-12 04:06 xCookie21 #7810 1.516,2.350,2.334,2.343
US N 8.543s 2023-02-25 18:12 ItsRadiantsun #7811 1.416,2.400,2.367,2.360
SE N 8.543s 2023-03-08 08:07 Imb3tt3r #7812 1.383,2.433,2.367,2.360
US N 8.543s 2023-03-24 18:23 Guest4087 #7813 1.583,2.317,2.283,2.360
FR N 8.543s 2023-04-05 14:02 mitri_tr #7814 1.550,2.316,2.334,2.343
EE N 8.543s 2023-08-07 13:02 Ranar l #7815 1.466,2.350,2.350,2.377
GB Y 8.543s 2023-08-12 11:29 ich bin speed #7816 1.350,2.416,2.417,2.360
FI Y 8.543s 2023-08-12 22:53 Kazakh_ #7817 1.566,2.317,2.300,2.360
FR Y 8.543s 2023-09-22 20:44 IAM_ON_OVEN #7818 1.483,2.367,2.366,2.327
NL N 8.543s 2023-09-24 10:48 sk8jack19 #7819 1.466,2.250,2.384,2.443
US Y 8.543s 2023-11-23 18:45 Guest3651 #7820 1.450,2.350,2.366,2.377
HR Y 8.543s 2023-12-08 17:41 Leci #7821 1.550,2.366,2.300,2.327
FR Y 8.543s 2024-01-08 02:16 Sucetmakeu #7822 1.400,2.366,2.400,2.377
RU Y 8.543s 2024-01-21 15:02 Guest6500 #7823 1.583,2.250,2.317,2.393
GB Y 8.543s 2024-02-08 16:09 Guest3413 #7824 1.383,2.400,2.400,2.360
TR Y 8.543s 2024-03-04 19:10 bekireren2007 #7825 1.466,2.367,2.350,2.360
RU Y 8.543s 2024-03-09 15:12 MAKOK #7826 1.600,2.316,2.334,2.293
US N 8.543s 2024-04-17 19:37 Guest4057 #7827 1.583,2.250,2.317,2.393
GB N 8.543s 2024-04-24 13:51 SquashedBananan #7828 1.533,2.317,2.350,2.343
US N 8.543s 2024-05-26 15:58 LukeyPukey #7829 1.366,2.400,2.334,2.443
SE N 8.543s 2024-06-12 08:14 Swifty #7830 1.383,2.417,2.366,2.377
FR Y 8.543s 2024-07-07 16:00 Marius #7831 1.500,2.333,2.367,2.343
GB N 8.543s 2024-08-01 20:36 FrancisFRF #7832 1.450,2.250,2.416,2.427
FR Y 8.543s 2026-03-20 06:35 andoni 72 #7833 1.450,2.283,2.383,2.427
GR N 8.543s 2026-05-02 09:01 Tacozx #7834 1.466,2.350,2.350,2.377
SK Y 8.543s 2026-05-03 07:03 BionicGodProd #7835 1.516,2.317,2.333,2.377
RO Y 8.544s 2022-12-08 13:59 Eexzyy #7836 1.433,2.367,2.366,2.378
IT N 8.544s 2022-12-08 16:17 Alessandro11119 #7837 1.450,2.350,2.316,2.428
VN Y 8.544s 2022-12-11 10:38 Trai-pro #7838 1.350,2.400,2.383,2.411
HU Y 8.544s 2022-12-11 15:49 Guest1910 #7839 1.550,2.350,2.333,2.311
CZ Y 8.544s 2022-12-11 20:20 MnamHrany #7840 1.383,2.400,2.383,2.378
EE Y 8.544s 2022-12-14 08:49 Kaspar11 #7841 1.500,2.366,2.300,2.378
GE N 8.544s 2022-12-15 12:57 StumbleGotBorin #7842 1.450,2.366,2.300,2.428
AZ Y 8.544s 2022-12-17 08:58 ajdar #7843 1.450,2.416,2.384,2.294
EE N 8.544s 2022-12-17 13:59 Blade #7844 1.516,2.384,2.383,2.261
CZ Y 8.544s 2022-12-20 10:14 DixisCZ #7845 1.550,2.366,2.267,2.361
NZ Y 8.544s 2022-12-21 07:06 krismyballs #7846 1.500,2.366,2.300,2.378
SI Y 8.544s 2022-12-21 20:34 SG_CR4CK3D #7847 1.533,2.317,2.283,2.411
KR N 8.544s 2022-12-23 02:50 lnote7k #7848 1.466,2.400,2.300,2.378
RS N 8.544s 2022-12-23 06:23 SuperDuperpro54 #7849 1.383,2.317,2.366,2.478
GB Y 8.544s 2023-02-01 00:42 hiby123 #7850 1.450,2.316,2.317,2.461
GB Y 8.544s 2023-02-02 15:40 Sp jamie #7851 1.600,2.250,2.383,2.311
DE N 8.544s 2023-03-06 09:14 Guest1240 #7852 1.483,2.300,2.383,2.378
IT N 8.544s 2023-04-11 15:37 Angeles737YT #7853 1.383,2.417,2.366,2.378
PH Y 8.544s 2023-05-06 16:33 hades #7854 1.433,2.367,2.366,2.378
GB N 8.544s 2023-05-07 08:56 Green apple #7855 1.516,2.250,2.434,2.344
GB Y 8.544s 2023-05-07 09:46 Exo-traordinary #7856 1.400,2.300,2.433,2.411
TR N 8.544s 2023-05-22 22:08 IamPhysico #7857 1.500,2.366,2.300,2.378
US Y 8.544s 2023-06-01 14:29 Cabernator #7858 1.433,2.300,2.433,2.378
ID Y 8.544s 2023-06-04 05:42 xCirno #7859 1.383,2.367,2.383,2.411
GR Y 8.544s 2023-06-08 07:48 Avernor97 #7860 1.433,2.367,2.366,2.378
AU N 8.544s 2023-07-01 06:21 Guest5730 #7861 1.533,2.317,2.283,2.411
RO N 8.544s 2023-07-28 09:41 BYDavidu #7862 1.416,2.400,2.317,2.411
BG Y 8.544s 2023-07-31 12:07 Mangal #7863 1.383,2.400,2.367,2.394
US Y 8.544s 2023-08-05 20:51 Quizic0l #7864 1.533,2.383,2.267,2.361
DE Y 8.544s 2023-08-08 12:50 okkkkkk00 #7865 1.450,2.366,2.367,2.361
US N 8.544s 2023-09-22 17:12 Loomi0228 #7866 1.616,2.284,2.316,2.328
HU Y 8.544s 2023-11-10 09:15 fikafejnyomorek #7867 1.466,2.400,2.300,2.378
US N 8.544s 2023-12-04 04:05 SomeoneDumb #7868 1.450,2.400,2.266,2.428
FR Y 8.544s 2023-12-04 13:00 Ax3l #7869 1.500,2.333,2.300,2.411
DE Y 8.544s 2023-12-23 12:01 Meisterigel #7870 1.500,2.366,2.300,2.378
FR Y 8.544s 2024-01-13 23:13 Malo2 #7871 1.450,2.333,2.383,2.378
US Y 8.544s 2024-02-03 20:01 zboubinator #7872 1.483,2.383,2.267,2.411
US N 8.544s 2024-02-07 13:16 Stvn #7873 1.483,2.350,2.300,2.411
JP Y 8.544s 2024-02-11 03:59 OwO #7874 1.500,2.366,2.300,2.378
GB N 8.544s 2024-06-05 13:07 JadeJaguar1709 #7875 1.600,2.366,2.267,2.311
US Y 8.544s 2024-07-07 02:27 Collybuckets #7876 1.500,2.366,2.300,2.378
DE Y 8.544s 2024-07-07 10:27 PrimeJohan #7877 1.400,2.383,2.367,2.394
US Y 8.544s 2024-07-07 15:11 Guest5905 #7878 1.600,2.250,2.383,2.311
GE Y 8.544s 2024-07-10 12:50 Me var dzu #7879 1.466,2.384,2.333,2.361
LT Y 8.544s 2024-07-11 12:30 LordlyObserver2 #7880 1.650,2.250,2.316,2.328
NO Y 8.544s 2024-08-04 21:31 TR Winx #7881 1.450,2.366,2.300,2.428
LT N 8.544s 2024-09-26 17:07 SadGuy #7882 1.500,2.366,2.300,2.378
NL N 8.544s 2024-10-01 06:58 Henkispenki #7883 1.483,2.400,2.283,2.378
KR N 8.544s 2025-06-03 14:03 ㅈㅇㅈ #7884 1.500,2.250,2.350,2.444
NL N 8.544s 2025-09-13 23:05 SamNijssen #7885 1.500,2.383,2.267,2.394
RS Y 8.544s 2025-12-23 20:19 doga10 #7886 1.483,2.283,2.384,2.394
DE N 8.544s 2026-01-05 18:03 Yurrkop #7887 1.550,2.316,2.334,2.344
GB Y 8.544s 2026-01-11 18:56 Andrew #7888 1.383,2.367,2.383,2.411
US Y 8.544s 2026-02-22 06:08 robotcake8 #7889 1.433,2.333,2.400,2.378
FR Y 8.544s 2026-03-18 17:30 MaxMsl #7890 1.400,2.366,2.400,2.378
RO Y 8.544s 2026-03-25 08:55 Seba_28 #7891 1.583,2.250,2.350,2.361
TN Y 8.544s 2026-04-06 17:38 Alpha #7892 1.500,2.316,2.284,2.444
BY Y 8.557s 2022-12-23 07:13 pymba2028 #7893 1.450,2.333,2.450,2.324
IT Y 8.557s 2022-12-28 15:23 marsaba08 #7894 1.466,2.334,2.416,2.341
DE N 8.557s 2024-11-02 18:36 CynicalCompass5 #7895 1.550,2.333,2.333,2.341
IT Y 8.558s 2022-12-10 06:59 NEXUS #7896 1.550,2.266,2.384,2.358
MK N 8.558s 2022-12-12 18:06 SubduedPerplexi #7897 1.433,2.400,2.367,2.358
PL N 8.558s 2023-02-10 16:16 amenowskyy #7898 1.450,2.350,2.383,2.375
CA Y 8.558s 2023-08-04 00:58 paradoxwolf4 #7899 1.583,2.267,2.383,2.325
BR N 8.558s 2023-08-05 15:48 edumax1021 #7900 1.350,2.400,2.416,2.392
DE Y 8.560s 2022-09-07 19:36 Wakob #7901 1.483,2.367,2.383,2.327
US Y 8.560s 2022-10-11 02:44 Boozy #7902 1.550,2.383,2.300,2.327
GE Y 8.560s 2022-10-11 08:28 GloatingGorilla #7903 1.466,2.367,2.317,2.410
NL N 8.560s 2022-10-11 09:29 WilderLease2 #7904 1.466,2.367,2.400,2.327
PT Y 8.560s 2022-12-08 10:58 lins #7905 1.433,2.433,2.300,2.394
IL Y 8.560s 2022-12-09 10:16 Guest1423 #7906 1.516,2.417,2.300,2.327
TR N 8.560s 2022-12-09 10:36 SlashKing #7907 1.516,2.334,2.316,2.394
MD N 8.560s 2022-12-11 00:22 XiaoTheAdeptus #7908 1.583,2.317,2.333,2.327
IL N 8.560s 2022-12-11 08:21 GLX ON TOP #7909 1.450,2.350,2.333,2.427
FI N 8.560s 2022-12-12 10:15 Guest4624 #7910 1.450,2.366,2.367,2.377
TN Y 8.560s 2022-12-13 06:22 Amirpasminato #7911 1.516,2.367,2.300,2.377
LV Y 8.560s 2022-12-13 14:29 Matissh #7912 1.433,2.400,2.350,2.377
DK N 8.560s 2022-12-14 17:25 Christian0020h #7913 1.583,2.317,2.366,2.294
RO N 8.560s 2022-12-15 15:02 Gusti #7914 1.616,2.317,2.333,2.294
HR Y 8.560s 2022-12-16 11:22 Jovo #7915 1.450,2.366,2.367,2.377
FI Y 8.560s 2022-12-17 15:55 Vilppori #7916 1.400,2.400,2.383,2.377
GR N 8.560s 2022-12-19 11:54 GloatingGauntle #7917 1.383,2.433,2.300,2.444
SI Y 8.560s 2022-12-21 14:24 Catcus_On_Fire #7918 1.483,2.317,2.350,2.410
HR Y 8.560s 2022-12-25 18:54 Guest7954 #7919 1.450,2.366,2.367,2.377
BR Y 8.560s 2023-01-04 00:35 luizinho #7920 1.500,2.366,2.367,2.327
IE Y 8.560s 2023-01-20 10:49 MeanderingGoal3 #7921 1.450,2.366,2.367,2.377
ES Y 8.560s 2023-02-02 21:35 Kacpersbigwilly #7922 1.483,2.383,2.300,2.394
ES Y 8.560s 2023-02-03 14:43 Gerard #7923 1.466,2.317,2.300,2.477
US N 8.560s 2023-02-10 00:27 ClosestBand22 #7924 1.450,2.366,2.367,2.377
NL N 8.560s 2023-02-11 11:00 JaysanXD #7925 1.383,2.383,2.417,2.377
FR N 8.560s 2023-02-12 08:36 Supermarzo #7926 1.483,2.350,2.367,2.360
US N 8.560s 2023-03-08 12:44 Z3ROSHARK #7927 1.500,2.366,2.367,2.327
PT N 8.560s 2023-03-11 00:33 sunny #7928 1.350,2.400,2.366,2.444
DE N 8.560s 2023-03-15 10:03 zLequit #7929 1.533,2.350,2.333,2.344
AU N 8.560s 2023-03-23 21:59 Noobley #7930 1.483,2.367,2.383,2.327
NL N 8.560s 2023-04-11 18:42 exerock 3 #7931 1.450,2.483,2.300,2.327
EG N 8.560s 2023-04-14 20:17 kxlany #7932 1.450,2.350,2.333,2.427
CA Y 8.560s 2023-05-14 14:39 Vox #7933 1.483,2.367,2.383,2.327
BE N 8.560s 2023-05-21 06:38 Guest5800 #7934 1.483,2.367,2.300,2.410
ES N 8.560s 2023-05-30 16:28 Irix #7935 1.450,2.316,2.317,2.477
IT N 8.560s 2023-06-02 08:25 Gerryh #7936 1.450,2.366,2.350,2.394
US Y 8.560s 2023-06-03 00:24 KyanTheBeast #7937 1.533,2.367,2.266,2.394
FR N 8.560s 2023-06-03 21:15 Neco_GPX #7938 1.383,2.383,2.417,2.377
NL N 8.560s 2023-06-04 16:53 Williamosaurus #7939 1.450,2.366,2.367,2.377
DE Y 8.560s 2023-06-08 03:00 Repli98 #7940 1.533,2.317,2.366,2.344
NL N 8.560s 2023-06-09 14:49 stevun #7941 1.500,2.250,2.383,2.427
GB N 8.560s 2023-06-28 08:37 ADude64 #7942 1.516,2.367,2.300,2.377
CH N 8.560s 2023-07-07 14:39 Flixer123 #7943 1.400,2.400,2.383,2.377
DE N 8.560s 2023-07-07 22:04 Chea7er #7944 1.566,2.367,2.300,2.327
NO Y 8.560s 2023-07-08 13:10 SmallDinosaur #7945 1.500,2.383,2.350,2.327
SE Y 8.560s 2023-07-12 13:11 Guest3463 #7946 1.466,2.317,2.367,2.410
RU N 8.560s 2023-10-08 18:29 Lacost #7947 1.483,2.400,2.300,2.377
IT Y 8.560s 2023-10-10 08:38 MTT #7948 1.450,2.300,2.350,2.460
AU Y 8.560s 2023-10-19 08:59 Switchfour #7949 1.466,2.350,2.367,2.377
BE N 8.560s 2023-11-10 10:41 bpboy12 #7950 1.550,2.283,2.333,2.394
IE N 8.560s 2023-11-10 22:36 Shocmiester09 #7951 1.383,2.367,2.383,2.427
US N 8.560s 2023-11-14 17:41 Guest1756 #7952 1.366,2.434,2.350,2.410
BG Y 8.560s 2023-12-06 13:57 DontBlink #7953 1.350,2.466,2.367,2.377
US N 8.560s 2023-12-08 16:49 Probably1st #7954 1.466,2.350,2.317,2.427
UA Y 8.560s 2023-12-10 13:59 Floren #7955 1.550,2.383,2.300,2.327
FR Y 8.560s 2023-12-20 15:28 Guest5110 #7956 1.450,2.366,2.367,2.377
AT N 8.560s 2023-12-24 06:35 Amelie #7957 1.450,2.433,2.300,2.377
MK Y 8.560s 2024-01-01 19:56 EffectiveDetent #7958 1.533,2.317,2.350,2.360
UA N 8.560s 2024-02-29 13:20 GodlyBird #7959 1.466,2.367,2.300,2.427
US Y 8.560s 2024-03-01 23:40 LukeDaNuke #7960 1.466,2.334,2.333,2.427
GB Y 8.560s 2024-03-06 20:19 Rezki #7961 1.483,2.367,2.383,2.327
VN N 8.560s 2024-05-05 19:42 Guest2945 #7962 1.466,2.367,2.283,2.444
GB Y 8.560s 2024-05-07 12:48 KingDong232 #7963 1.450,2.383,2.383,2.344
BR N 8.560s 2024-05-07 23:31 gdaleson #7964 1.466,2.417,2.350,2.327
US Y 8.560s 2024-05-09 05:50 TrapS #7965 1.433,2.383,2.367,2.377
US Y 8.560s 2024-06-02 19:38 CORPSE #7966 1.500,2.366,2.317,2.377
ZA Y 8.560s 2024-06-05 15:55 Guest5523 #7967 1.483,2.383,2.367,2.327
US Y 8.560s 2024-08-05 23:49 Fusion #7968 1.533,2.317,2.333,2.377
GB Y 8.560s 2024-08-10 22:37 ?? #7969 1.550,2.316,2.284,2.410
CA Y 8.560s 2024-10-15 00:44 Vinstle #7970 1.500,2.366,2.300,2.394
IL N 8.560s 2025-01-30 09:44 Saba #7971 1.466,2.367,2.317,2.410
US N 8.560s 2025-03-01 01:21 TalkingMime #7972 1.566,2.367,2.300,2.327
US N 8.560s 2025-05-09 13:47 Matt #7973 1.450,2.366,2.367,2.377
JP N 8.560s 2025-11-03 05:56 hamuniru #7974 1.483,2.367,2.366,2.344
US N 8.560s 2025-12-17 20:43 Beanz #7975 1.450,2.350,2.333,2.427
US Y 8.560s 2025-12-30 11:00 zrhv #7976 1.450,2.366,2.367,2.377
DE Y 8.560s 2026-01-02 17:24 Guest6583 #7977 1.400,2.433,2.317,2.410
US Y 8.560s 2026-01-05 15:30 Guest4196 #7978 1.566,2.367,2.300,2.327
US Y 8.560s 2026-01-09 05:49 naptime #7979 1.350,2.366,2.434,2.410
DE Y 8.560s 2026-01-20 13:57 Alex #7980 1.450,2.366,2.367,2.377
ES Y 8.560s 2026-01-21 19:50 Yandros40 #7981 1.450,2.366,2.367,2.377
BG Y 8.560s 2026-01-28 11:12 LoopyExpert2529 #7982 1.600,2.250,2.316,2.394
DK Y 8.560s 2026-02-07 16:03 Vilaxo #7983 1.483,2.367,2.383,2.327
IT Y 8.560s 2026-03-03 15:21 Aboscol #7984 1.533,2.317,2.300,2.410
FR Y 8.560s 2026-03-09 17:13 R4PHAEL #7985 1.450,2.366,2.367,2.377
ES Y 8.560s 2026-03-22 19:45 Guest9634 #7986 1.600,2.316,2.350,2.294
US Y 8.560s 2026-04-08 14:42 fuego #7987 1.516,2.367,2.300,2.377
DE Y 8.560s 2026-04-11 14:34 Gezzozヤ #7988 1.550,2.333,2.333,2.344
PE N 8.560s 2026-04-13 04:43 Val3ntin_18 #7989 1.350,2.383,2.350,2.477
FR Y 8.560s 2026-04-13 20:31 JWJ #7990 1.450,2.366,2.367,2.377
IT Y 8.560s 2026-05-05 19:44 TecMate #7991 1.483,2.367,2.333,2.377
IT N 8.561s 2022-12-11 23:20 Boga #7992 1.450,2.300,2.433,2.378
IE Y 8.561s 2022-12-23 20:30 Exospag #7993 1.566,2.367,2.267,2.361
BE Y 8.561s 2023-02-08 12:48 PostalDiamond62 #7994 1.483,2.367,2.366,2.345
MD Y 8.561s 2023-05-19 06:33 Cr1st1 #7995 1.466,2.434,2.383,2.278
SG N 8.561s 2023-11-12 03:57 hiitjustin #7996 1.516,2.350,2.367,2.328
DE Y 8.561s 2024-02-18 08:56 RoadRunner211 #7997 1.516,2.350,2.334,2.361
NL Y 8.561s 2024-02-26 19:46 CrzyWrld #7998 1.450,2.383,2.333,2.395
US N 8.561s 2024-03-05 12:30 Flappy #7999 1.550,2.366,2.284,2.361
US N 8.561s 2024-03-09 01:45 zxzu #8000 1.533,2.333,2.384,2.311
Next page